<?xml version="1.0" encoding="UTF-8" standalone="no" ?>
<gpx xmlns="http://www.topografix.com/GPX/1/1" xmlns:xsi="http://www.w3.org/2001/XMLSchema-instance" xsi:schemaLocation="http://www.topografix.com/GPX/1/1 http://www.topografix.com/GPX/1/1/gpx.xsd" version="1.1" creator="VisuGPX - https://www.visugpx.com">
  <metadata>
    <name>Crête de Combe Morelle</name>
    <desc><![CDATA[
]]></desc>
  </metadata>
  <trk>
    <name><![CDATA[Move]]></name>
    <trkseg>
      <trkpt lat="44.7661" lon="6.98398">
        <ele>1689.1999511719</ele>
        <time>2020-02-19T08:35:09.670Z</time>
      </trkpt>
      <trkpt lat="44.76608" lon="6.98398">
        <ele>1670.4</ele>
        <time>2020-02-19T08:35:11.670Z</time>
      </trkpt>
      <trkpt lat="44.766" lon="6.98401">
        <ele>1566.4193229235</ele>
        <time>2020-02-19T08:36:05.670Z</time>
      </trkpt>
      <trkpt lat="44.76609" lon="6.9839">
        <ele>1567.1171169093</ele>
        <time>2020-02-19T08:36:18.670Z</time>
      </trkpt>
      <trkpt lat="44.76615" lon="6.98403">
        <ele>1568.21800064</ele>
        <time>2020-02-19T08:36:29.670Z</time>
      </trkpt>
      <trkpt lat="44.76609" lon="6.98416">
        <ele>1569.7171520055</ele>
        <time>2020-02-19T08:37:44.670Z</time>
      </trkpt>
      <trkpt lat="44.76606" lon="6.98428">
        <ele>1571.43600128</ele>
        <time>2020-02-19T08:37:54.670Z</time>
      </trkpt>
      <trkpt lat="44.76604" lon="6.98433">
        <ele>1572.11800064</ele>
        <time>2020-02-19T08:37:58.670Z</time>
      </trkpt>
      <trkpt lat="44.76604" lon="6.9844">
        <ele>1572.61800064</ele>
        <time>2020-02-19T08:38:03.670Z</time>
      </trkpt>
      <trkpt lat="44.76611" lon="6.98452">
        <ele>1573.61800064</ele>
        <time>2020-02-19T08:38:13.670Z</time>
      </trkpt>
      <trkpt lat="44.76615" lon="6.98464">
        <ele>1575.01800064</ele>
        <time>2020-02-19T08:38:27.670Z</time>
      </trkpt>
      <trkpt lat="44.7662" lon="6.98475">
        <ele>1576.43600128</ele>
        <time>2020-02-19T08:38:39.670Z</time>
      </trkpt>
      <trkpt lat="44.76622" lon="6.98488">
        <ele>1578</ele>
        <time>2020-02-19T08:38:49.670Z</time>
      </trkpt>
      <trkpt lat="44.76623" lon="6.98501">
        <ele>1578</ele>
        <time>2020-02-19T08:38:57.670Z</time>
      </trkpt>
      <trkpt lat="44.76624" lon="6.98514">
        <ele>1578.8115947406</ele>
        <time>2020-02-19T08:39:05.670Z</time>
      </trkpt>
      <trkpt lat="44.76623" lon="6.98527">
        <ele>1579.91800064</ele>
        <time>2020-02-19T08:39:16.670Z</time>
      </trkpt>
      <trkpt lat="44.76624" lon="6.9854">
        <ele>1582</ele>
        <time>2020-02-19T08:39:28.670Z</time>
      </trkpt>
      <trkpt lat="44.76628" lon="6.98552">
        <ele>1582.11800064</ele>
        <time>2020-02-19T08:39:38.670Z</time>
      </trkpt>
      <trkpt lat="44.7663" lon="6.98566">
        <ele>1583.41800064</ele>
        <time>2020-02-19T08:39:51.670Z</time>
      </trkpt>
      <trkpt lat="44.76634" lon="6.98577">
        <ele>1583.68199936</ele>
        <time>2020-02-19T08:40:00.670Z</time>
      </trkpt>
      <trkpt lat="44.76637" lon="6.9859">
        <ele>1583.63600128</ele>
        <time>2020-02-19T08:40:10.670Z</time>
      </trkpt>
      <trkpt lat="44.76637" lon="6.98603">
        <ele>1585</ele>
        <time>2020-02-19T08:40:23.670Z</time>
      </trkpt>
      <trkpt lat="44.76638" lon="6.98616">
        <ele>1586.6352715897</ele>
        <time>2020-02-19T08:40:35.670Z</time>
      </trkpt>
      <trkpt lat="44.7664" lon="6.98629">
        <ele>1588.01800064</ele>
        <time>2020-02-19T08:40:47.670Z</time>
      </trkpt>
      <trkpt lat="44.76643" lon="6.98641">
        <ele>1589</ele>
        <time>2020-02-19T08:40:59.670Z</time>
      </trkpt>
      <trkpt lat="44.76645" lon="6.98654">
        <ele>1589.03600128</ele>
        <time>2020-02-19T08:41:07.670Z</time>
      </trkpt>
      <trkpt lat="44.76649" lon="6.98666">
        <ele>1591.8693940995</ele>
        <time>2020-02-19T08:41:19.670Z</time>
      </trkpt>
      <trkpt lat="44.76653" lon="6.98679">
        <ele>1595.6318965318</ele>
        <time>2020-02-19T08:41:30.670Z</time>
      </trkpt>
      <trkpt lat="44.76653" lon="6.98693">
        <ele>1596.16399872</ele>
        <time>2020-02-19T08:41:41.670Z</time>
      </trkpt>
      <trkpt lat="44.76655" lon="6.98706">
        <ele>1595</ele>
        <time>2020-02-19T08:41:51.670Z</time>
      </trkpt>
      <trkpt lat="44.76656" lon="6.98719">
        <ele>1595.5019386046</ele>
        <time>2020-02-19T08:42:02.670Z</time>
      </trkpt>
      <trkpt lat="44.76659" lon="6.98732">
        <ele>1597.2070040101</ele>
        <time>2020-02-19T08:42:13.670Z</time>
      </trkpt>
      <trkpt lat="44.76662" lon="6.98745">
        <ele>1599.0331002714</ele>
        <time>2020-02-19T08:42:22.670Z</time>
      </trkpt>
      <trkpt lat="44.76666" lon="6.98756">
        <ele>1601.03600128</ele>
        <time>2020-02-19T08:42:32.670Z</time>
      </trkpt>
      <trkpt lat="44.76667" lon="6.9877">
        <ele>1602.71800064</ele>
        <time>2020-02-19T08:42:44.670Z</time>
      </trkpt>
      <trkpt lat="44.76667" lon="6.98783">
        <ele>1603</ele>
        <time>2020-02-19T08:42:55.670Z</time>
      </trkpt>
      <trkpt lat="44.76668" lon="6.98796">
        <ele>1604.43600128</ele>
        <time>2020-02-19T08:43:09.670Z</time>
      </trkpt>
      <trkpt lat="44.7667" lon="6.98809">
        <ele>1606.31800064</ele>
        <time>2020-02-19T08:43:20.670Z</time>
      </trkpt>
      <trkpt lat="44.76671" lon="6.98822">
        <ele>1607</ele>
        <time>2020-02-19T08:43:33.670Z</time>
      </trkpt>
      <trkpt lat="44.76672" lon="6.98835">
        <ele>1608.03600128</ele>
        <time>2020-02-19T08:43:47.670Z</time>
      </trkpt>
      <trkpt lat="44.76675" lon="6.98848">
        <ele>1610.83600128</ele>
        <time>2020-02-19T08:44:01.670Z</time>
      </trkpt>
      <trkpt lat="44.76679" lon="6.9886">
        <ele>1612</ele>
        <time>2020-02-19T08:44:12.670Z</time>
      </trkpt>
      <trkpt lat="44.76683" lon="6.98873">
        <ele>1613.2344697295</ele>
        <time>2020-02-19T08:44:23.670Z</time>
      </trkpt>
      <trkpt lat="44.76687" lon="6.98885">
        <ele>1615.43600128</ele>
        <time>2020-02-19T08:44:34.670Z</time>
      </trkpt>
      <trkpt lat="44.7669" lon="6.98897">
        <ele>1617.83600128</ele>
        <time>2020-02-19T08:44:46.670Z</time>
      </trkpt>
      <trkpt lat="44.76696" lon="6.98908">
        <ele>1619.01800064</ele>
        <time>2020-02-19T08:44:57.670Z</time>
      </trkpt>
      <trkpt lat="44.76701" lon="6.98919">
        <ele>1620.2282409419</ele>
        <time>2020-02-19T08:45:08.670Z</time>
      </trkpt>
      <trkpt lat="44.76707" lon="6.9893">
        <ele>1622.7950315826</ele>
        <time>2020-02-19T08:45:21.670Z</time>
      </trkpt>
      <trkpt lat="44.76712" lon="6.98941">
        <ele>1625.03600128</ele>
        <time>2020-02-19T08:45:32.670Z</time>
      </trkpt>
      <trkpt lat="44.76718" lon="6.98951">
        <ele>1627.63600128</ele>
        <time>2020-02-19T08:45:45.670Z</time>
      </trkpt>
      <trkpt lat="44.76721" lon="6.98964">
        <ele>1630.63600128</ele>
        <time>2020-02-19T08:46:05.670Z</time>
      </trkpt>
      <trkpt lat="44.76721" lon="6.98976">
        <ele>1631</ele>
        <time>2020-02-19T08:46:16.670Z</time>
      </trkpt>
      <trkpt lat="44.76719" lon="6.9899">
        <ele>1630.38199936</ele>
        <time>2020-02-19T08:46:23.670Z</time>
      </trkpt>
      <trkpt lat="44.76713" lon="6.99">
        <ele>1629.88199936</ele>
        <time>2020-02-19T08:46:28.670Z</time>
      </trkpt>
      <trkpt lat="44.76703" lon="6.99005">
        <ele>1629.18199936</ele>
        <time>2020-02-19T08:46:35.670Z</time>
      </trkpt>
      <trkpt lat="44.76694" lon="6.99006">
        <ele>1628.18199936</ele>
        <time>2020-02-19T08:46:45.670Z</time>
      </trkpt>
      <trkpt lat="44.76685" lon="6.99008">
        <ele>1628</ele>
        <time>2020-02-19T08:46:51.670Z</time>
      </trkpt>
      <trkpt lat="44.7668" lon="6.9902">
        <ele>1630.51800064</ele>
        <time>2020-02-19T08:47:42.670Z</time>
      </trkpt>
      <trkpt lat="44.76677" lon="6.99032">
        <ele>1633</ele>
        <time>2020-02-19T08:48:03.670Z</time>
      </trkpt>
      <trkpt lat="44.76674" lon="6.99044">
        <ele>1635.0174424806</ele>
        <time>2020-02-19T08:48:17.670Z</time>
      </trkpt>
      <trkpt lat="44.7667" lon="6.99055">
        <ele>1636.1776872727</ele>
        <time>2020-02-19T08:48:28.670Z</time>
      </trkpt>
      <trkpt lat="44.76669" lon="6.99068">
        <ele>1639.83600128</ele>
        <time>2020-02-19T08:48:46.670Z</time>
      </trkpt>
      <trkpt lat="44.76669" lon="6.99081">
        <ele>1641.9511481711</ele>
        <time>2020-02-19T08:49:00.670Z</time>
      </trkpt>
      <trkpt lat="44.76669" lon="6.99094">
        <ele>1644</ele>
        <time>2020-02-19T08:49:14.670Z</time>
      </trkpt>
      <trkpt lat="44.76669" lon="6.99107">
        <ele>1647.23600128</ele>
        <time>2020-02-19T08:49:33.670Z</time>
      </trkpt>
      <trkpt lat="44.76678" lon="6.99107">
        <ele>1652.634731411</ele>
        <time>2020-02-19T08:50:00.670Z</time>
      </trkpt>
      <trkpt lat="44.76684" lon="6.99117">
        <ele>1657.21800064</ele>
        <time>2020-02-19T08:50:29.670Z</time>
      </trkpt>
      <trkpt lat="44.7669" lon="6.99128">
        <ele>1662.23600128</ele>
        <time>2020-02-19T08:50:58.670Z</time>
      </trkpt>
      <trkpt lat="44.76688" lon="6.99141">
        <ele>1664</ele>
        <time>2020-02-19T08:51:16.670Z</time>
      </trkpt>
      <trkpt lat="44.76689" lon="6.99153">
        <ele>1667.3914741085</ele>
        <time>2020-02-19T08:51:34.670Z</time>
      </trkpt>
      <trkpt lat="44.76689" lon="6.99167">
        <ele>1669.03600128</ele>
        <time>2020-02-19T08:51:47.670Z</time>
      </trkpt>
      <trkpt lat="44.76686" lon="6.99178">
        <ele>1672.23600128</ele>
        <time>2020-02-19T08:52:03.670Z</time>
      </trkpt>
      <trkpt lat="44.76695" lon="6.99177">
        <ele>1677.8155537179</ele>
        <time>2020-02-19T08:52:45.670Z</time>
      </trkpt>
      <trkpt lat="44.76697" lon="6.9919">
        <ele>1682.11800064</ele>
        <time>2020-02-19T08:53:08.670Z</time>
      </trkpt>
      <trkpt lat="44.76704" lon="6.99197">
        <ele>1686.23600128</ele>
        <time>2020-02-19T08:53:33.670Z</time>
      </trkpt>
      <trkpt lat="44.76713" lon="6.99203">
        <ele>1689.43600128</ele>
        <time>2020-02-19T08:53:59.670Z</time>
      </trkpt>
      <trkpt lat="44.76721" lon="6.99208">
        <ele>1692.63600128</ele>
        <time>2020-02-19T08:54:15.670Z</time>
      </trkpt>
      <trkpt lat="44.76717" lon="6.99219">
        <ele>1693.21800064</ele>
        <time>2020-02-19T08:54:29.670Z</time>
      </trkpt>
      <trkpt lat="44.76726" lon="6.99222">
        <ele>1695.9690522435</ele>
        <time>2020-02-19T08:54:47.670Z</time>
      </trkpt>
      <trkpt lat="44.76735" lon="6.99225">
        <ele>1700.6167667119</ele>
        <time>2020-02-19T08:55:23.670Z</time>
      </trkpt>
      <trkpt lat="44.76741" lon="6.99235">
        <ele>1703.63600128</ele>
        <time>2020-02-19T08:55:40.670Z</time>
      </trkpt>
      <trkpt lat="44.76737" lon="6.99246">
        <ele>1706.01800064</ele>
        <time>2020-02-19T08:55:57.670Z</time>
      </trkpt>
      <trkpt lat="44.76746" lon="6.99251">
        <ele>1708.63600128</ele>
        <time>2020-02-19T08:56:15.670Z</time>
      </trkpt>
      <trkpt lat="44.76755" lon="6.99255">
        <ele>1711.63600128</ele>
        <time>2020-02-19T08:56:30.670Z</time>
      </trkpt>
      <trkpt lat="44.76764" lon="6.99254">
        <ele>1715.03600128</ele>
        <time>2020-02-19T08:56:52.670Z</time>
      </trkpt>
      <trkpt lat="44.76773" lon="6.99252">
        <ele>1717.11800064</ele>
        <time>2020-02-19T08:57:08.670Z</time>
      </trkpt>
      <trkpt lat="44.76782" lon="6.99247">
        <ele>1719.23600128</ele>
        <time>2020-02-19T08:57:23.670Z</time>
      </trkpt>
      <trkpt lat="44.76791" lon="6.99244">
        <ele>1722.51800064</ele>
        <time>2020-02-19T08:57:42.670Z</time>
      </trkpt>
      <trkpt lat="44.76799" lon="6.99251">
        <ele>1724.7790710077</ele>
        <time>2020-02-19T08:57:56.670Z</time>
      </trkpt>
      <trkpt lat="44.76799" lon="6.99264">
        <ele>1729.41800064</ele>
        <time>2020-02-19T08:58:11.670Z</time>
      </trkpt>
      <trkpt lat="44.76791" lon="6.99272">
        <ele>1730</ele>
        <time>2020-02-19T08:58:21.670Z</time>
      </trkpt>
      <trkpt lat="44.76787" lon="6.99283">
        <ele>1731.83600128</ele>
        <time>2020-02-19T08:58:36.670Z</time>
      </trkpt>
      <trkpt lat="44.76784" lon="6.99295">
        <ele>1734.35400192</ele>
        <time>2020-02-19T08:58:58.670Z</time>
      </trkpt>
      <trkpt lat="44.76782" lon="6.99308">
        <ele>1737.71800064</ele>
        <time>2020-02-19T08:59:14.670Z</time>
      </trkpt>
      <trkpt lat="44.76779" lon="6.99321">
        <ele>1739.23600128</ele>
        <time>2020-02-19T08:59:28.670Z</time>
      </trkpt>
      <trkpt lat="44.76775" lon="6.99332">
        <ele>1741.91800064</ele>
        <time>2020-02-19T08:59:46.670Z</time>
      </trkpt>
      <trkpt lat="44.76771" lon="6.99345">
        <ele>1743.41800064</ele>
        <time>2020-02-19T09:00:01.670Z</time>
      </trkpt>
      <trkpt lat="44.76766" lon="6.99356">
        <ele>1745.03600128</ele>
        <time>2020-02-19T09:00:12.670Z</time>
      </trkpt>
      <trkpt lat="44.76764" lon="6.99369">
        <ele>1747.43600128</ele>
        <time>2020-02-19T09:00:34.670Z</time>
      </trkpt>
      <trkpt lat="44.76768" lon="6.9938">
        <ele>1749.71800064</ele>
        <time>2020-02-19T09:00:54.670Z</time>
      </trkpt>
      <trkpt lat="44.76777" lon="6.99385">
        <ele>1754.71800064</ele>
        <time>2020-02-19T09:01:24.670Z</time>
      </trkpt>
      <trkpt lat="44.76785" lon="6.99388">
        <ele>1756.83600128</ele>
        <time>2020-02-19T09:01:41.670Z</time>
      </trkpt>
      <trkpt lat="44.76795" lon="6.99391">
        <ele>1759.23600128</ele>
        <time>2020-02-19T09:01:58.670Z</time>
      </trkpt>
      <trkpt lat="44.76804" lon="6.9939">
        <ele>1762</ele>
        <time>2020-02-19T09:02:25.670Z</time>
      </trkpt>
      <trkpt lat="44.76802" lon="6.99403">
        <ele>1765.0359652802</ele>
        <time>2020-02-19T09:02:47.670Z</time>
      </trkpt>
      <trkpt lat="44.768" lon="6.99416">
        <ele>1767.6176178908</ele>
        <time>2020-02-19T09:03:03.670Z</time>
      </trkpt>
      <trkpt lat="44.76805" lon="6.99426">
        <ele>1771</ele>
        <time>2020-02-19T09:03:34.670Z</time>
      </trkpt>
      <trkpt lat="44.76814" lon="6.99422">
        <ele>1775.43600128</ele>
        <time>2020-02-19T09:03:59.670Z</time>
      </trkpt>
      <trkpt lat="44.76823" lon="6.99418">
        <ele>1777.8886735594</ele>
        <time>2020-02-19T09:04:16.670Z</time>
      </trkpt>
      <trkpt lat="44.76833" lon="6.99416">
        <ele>1780.2342338187</ele>
        <time>2020-02-19T09:04:28.670Z</time>
      </trkpt>
      <trkpt lat="44.76833" lon="6.99429">
        <ele>1783.0179467939</ele>
        <time>2020-02-19T09:04:47.670Z</time>
      </trkpt>
      <trkpt lat="44.76832" lon="6.99442">
        <ele>1786.03600128</ele>
        <time>2020-02-19T09:05:07.670Z</time>
      </trkpt>
      <trkpt lat="44.76829" lon="6.99455">
        <ele>1789.01800064</ele>
        <time>2020-02-19T09:05:27.670Z</time>
      </trkpt>
      <trkpt lat="44.76827" lon="6.99467">
        <ele>1790</ele>
        <time>2020-02-19T09:05:44.670Z</time>
      </trkpt>
      <trkpt lat="44.76827" lon="6.9948">
        <ele>1794.41800064</ele>
        <time>2020-02-19T09:06:11.670Z</time>
      </trkpt>
      <trkpt lat="44.76836" lon="6.99485">
        <ele>1796.03600128</ele>
        <time>2020-02-19T09:06:27.670Z</time>
      </trkpt>
      <trkpt lat="44.76842" lon="6.99495">
        <ele>1799.23600128</ele>
        <time>2020-02-19T09:06:43.670Z</time>
      </trkpt>
      <trkpt lat="44.76842" lon="6.99508">
        <ele>1802.51800064</ele>
        <time>2020-02-19T09:07:02.670Z</time>
      </trkpt>
      <trkpt lat="44.7684" lon="6.99521">
        <ele>1805</ele>
        <time>2020-02-19T09:07:18.670Z</time>
      </trkpt>
      <trkpt lat="44.76844" lon="6.99532">
        <ele>1808.71800064</ele>
        <time>2020-02-19T09:07:54.670Z</time>
      </trkpt>
      <trkpt lat="44.76838" lon="6.99543">
        <ele>1816.01800064</ele>
        <time>2020-02-19T09:08:37.670Z</time>
      </trkpt>
      <trkpt lat="44.76835" lon="6.99555">
        <ele>1816.61800064</ele>
        <time>2020-02-19T09:08:43.670Z</time>
      </trkpt>
      <trkpt lat="44.76843" lon="6.99561">
        <ele>1818.83600128</ele>
        <time>2020-02-19T09:09:16.670Z</time>
      </trkpt>
      <trkpt lat="44.7685" lon="6.99553">
        <ele>1821.31800064</ele>
        <time>2020-02-19T09:09:30.670Z</time>
      </trkpt>
      <trkpt lat="44.76859" lon="6.9956">
        <ele>1824.92200064</ele>
        <time>2020-02-19T09:09:56.710Z</time>
      </trkpt>
      <trkpt lat="44.76851" lon="6.99555">
        <ele>1828</ele>
        <time>2020-02-19T09:10:28.670Z</time>
      </trkpt>
      <trkpt lat="44.76842" lon="6.9956">
        <ele>1829.01800064</ele>
        <time>2020-02-19T09:10:47.670Z</time>
      </trkpt>
      <trkpt lat="44.76846" lon="6.99571">
        <ele>1832.01800064</ele>
        <time>2020-02-19T09:11:27.670Z</time>
      </trkpt>
      <trkpt lat="44.76853" lon="6.99581">
        <ele>1833</ele>
        <time>2020-02-19T09:11:40.670Z</time>
      </trkpt>
      <trkpt lat="44.76863" lon="6.99582">
        <ele>1840</ele>
        <time>2020-02-19T09:12:34.670Z</time>
      </trkpt>
      <trkpt lat="44.7687" lon="6.99572">
        <ele>1842.1820090377</ele>
        <time>2020-02-19T09:13:49.670Z</time>
      </trkpt>
      <trkpt lat="44.76878" lon="6.99578">
        <ele>1842</ele>
        <time>2020-02-19T09:14:11.670Z</time>
      </trkpt>
      <trkpt lat="44.76869" lon="6.99582">
        <ele>1843.28199936</ele>
        <time>2020-02-19T09:16:24.670Z</time>
      </trkpt>
      <trkpt lat="44.76878" lon="6.99578">
        <ele>1843</ele>
        <time>2020-02-19T09:16:36.670Z</time>
      </trkpt>
      <trkpt lat="44.7687" lon="6.99586">
        <ele>1844.5825825018</ele>
        <time>2020-02-19T09:17:11.670Z</time>
      </trkpt>
      <trkpt lat="44.76876" lon="6.99575">
        <ele>1846.9980379201</ele>
        <time>2020-02-19T09:17:37.670Z</time>
      </trkpt>
      <trkpt lat="44.76868" lon="6.99582">
        <ele>1849.2322324554</ele>
        <time>2020-02-19T09:17:59.820Z</time>
      </trkpt>
      <trkpt lat="44.76877" lon="6.99581">
        <ele>1850.21800064</ele>
        <time>2020-02-19T09:18:19.670Z</time>
      </trkpt>
      <trkpt lat="44.76874" lon="6.99593">
        <ele>1852</ele>
        <time>2020-02-19T09:18:41.670Z</time>
      </trkpt>
      <trkpt lat="44.76869" lon="6.99604">
        <ele>1854.63600128</ele>
        <time>2020-02-19T09:19:30.670Z</time>
      </trkpt>
      <trkpt lat="44.7686" lon="6.99604">
        <ele>1856.21500032</ele>
        <time>2020-02-19T09:19:39.640Z</time>
      </trkpt>
      <trkpt lat="44.76864" lon="6.99592">
        <ele>1858</ele>
        <time>2020-02-19T09:20:01.670Z</time>
      </trkpt>
      <trkpt lat="44.7687" lon="6.99603">
        <ele>1861.51800064</ele>
        <time>2020-02-19T09:20:52.670Z</time>
      </trkpt>
      <trkpt lat="44.76877" lon="6.99611">
        <ele>1862.11800064</ele>
        <time>2020-02-19T09:20:58.670Z</time>
      </trkpt>
      <trkpt lat="44.76871" lon="6.9962">
        <ele>1864</ele>
        <time>2020-02-19T09:21:20.670Z</time>
      </trkpt>
      <trkpt lat="44.76877" lon="6.99629">
        <ele>1864</ele>
        <time>2020-02-19T09:21:44.670Z</time>
      </trkpt>
      <trkpt lat="44.76869" lon="6.99633">
        <ele>1868.03600128</ele>
        <time>2020-02-19T09:22:37.670Z</time>
      </trkpt>
      <trkpt lat="44.76863" lon="6.99644">
        <ele>1869.9849545388</ele>
        <time>2020-02-19T09:22:57.670Z</time>
      </trkpt>
      <trkpt lat="44.76876" lon="6.99638">
        <ele>1871</ele>
        <time>2020-02-19T09:23:37.670Z</time>
      </trkpt>
      <trkpt lat="44.76868" lon="6.99631">
        <ele>1871</ele>
        <time>2020-02-19T09:23:58.610Z</time>
      </trkpt>
      <trkpt lat="44.76863" lon="6.99642">
        <ele>1871</ele>
        <time>2020-02-19T09:24:04.670Z</time>
      </trkpt>
      <trkpt lat="44.76853" lon="6.99641">
        <ele>1871.63600128</ele>
        <time>2020-02-19T09:24:10.670Z</time>
      </trkpt>
      <trkpt lat="44.76845" lon="6.99645">
        <ele>1873</ele>
        <time>2020-02-19T09:24:20.670Z</time>
      </trkpt>
      <trkpt lat="44.76855" lon="6.99648">
        <ele>1874</ele>
        <time>2020-02-19T09:25:16.670Z</time>
      </trkpt>
      <trkpt lat="44.76864" lon="6.99644">
        <ele>1879.31800064</ele>
        <time>2020-02-19T09:26:50.670Z</time>
      </trkpt>
      <trkpt lat="44.76855" lon="6.99642">
        <ele>1881.83600128</ele>
        <time>2020-02-19T09:27:16.670Z</time>
      </trkpt>
      <trkpt lat="44.7686" lon="6.99652">
        <ele>1882.61800064</ele>
        <time>2020-02-19T09:27:23.670Z</time>
      </trkpt>
      <trkpt lat="44.76864" lon="6.99665">
        <ele>1882.8846536039</ele>
        <time>2020-02-19T09:27:38.670Z</time>
      </trkpt>
      <trkpt lat="44.76855" lon="6.99665">
        <ele>1882.51800064</ele>
        <time>2020-02-19T09:28:12.670Z</time>
      </trkpt>
      <trkpt lat="44.76857" lon="6.99651">
        <ele>1883.71800064</ele>
        <time>2020-02-19T09:28:34.670Z</time>
      </trkpt>
      <trkpt lat="44.76862" lon="6.99663">
        <ele>1884</ele>
        <time>2020-02-19T09:29:04.670Z</time>
      </trkpt>
      <trkpt lat="44.76866" lon="6.99675">
        <ele>1885.6012390083</ele>
        <time>2020-02-19T09:29:41.670Z</time>
      </trkpt>
      <trkpt lat="44.76858" lon="6.99669">
        <ele>1885.91800064</ele>
        <time>2020-02-19T09:30:06.670Z</time>
      </trkpt>
      <trkpt lat="44.76849" lon="6.99667">
        <ele>1884.38199936</ele>
        <time>2020-02-19T09:31:03.670Z</time>
      </trkpt>
      <trkpt lat="44.76841" lon="6.99674">
        <ele>1881</ele>
        <time>2020-02-19T09:32:33.670Z</time>
      </trkpt>
      <trkpt lat="44.76836" lon="6.99685">
        <ele>1883</ele>
        <time>2020-02-19T09:33:02.670Z</time>
      </trkpt>
      <trkpt lat="44.76829" lon="6.99695">
        <ele>1882.78299904</ele>
        <time>2020-02-19T09:33:09.660Z</time>
      </trkpt>
      <trkpt lat="44.76834" lon="6.99683">
        <ele>1882.31800064</ele>
        <time>2020-02-19T09:33:20.670Z</time>
      </trkpt>
      <trkpt lat="44.76827" lon="6.99692">
        <ele>1885.92</ele>
        <time>2020-02-19T09:34:36.690Z</time>
      </trkpt>
      <trkpt lat="44.76818" lon="6.99686">
        <ele>1886</ele>
        <time>2020-02-19T09:34:49.670Z</time>
      </trkpt>
      <trkpt lat="44.76828" lon="6.99684">
        <ele>1885.83600128</ele>
        <time>2020-02-19T09:35:26.670Z</time>
      </trkpt>
      <trkpt lat="44.76836" lon="6.99692">
        <ele>1886</ele>
        <time>2020-02-19T09:35:48.670Z</time>
      </trkpt>
      <trkpt lat="44.76829" lon="6.99702">
        <ele>1889</ele>
        <time>2020-02-19T09:36:45.670Z</time>
      </trkpt>
      <trkpt lat="44.76819" lon="6.99706">
        <ele>1890.23600128</ele>
        <time>2020-02-19T09:36:53.670Z</time>
      </trkpt>
      <trkpt lat="44.76824" lon="6.99717">
        <ele>1892.43600128</ele>
        <time>2020-02-19T09:37:04.670Z</time>
      </trkpt>
      <trkpt lat="44.76825" lon="6.9973">
        <ele>1893.51800064</ele>
        <time>2020-02-19T09:37:12.670Z</time>
      </trkpt>
      <trkpt lat="44.7682" lon="6.99719">
        <ele>1898</ele>
        <time>2020-02-19T09:38:24.670Z</time>
      </trkpt>
      <trkpt lat="44.76829" lon="6.99719">
        <ele>1900</ele>
        <time>2020-02-19T09:38:38.670Z</time>
      </trkpt>
      <trkpt lat="44.76838" lon="6.99722">
        <ele>1901.04200192</ele>
        <time>2020-02-19T09:38:52.700Z</time>
      </trkpt>
      <trkpt lat="44.76847" lon="6.99715">
        <ele>1902</ele>
        <time>2020-02-19T09:39:02.670Z</time>
      </trkpt>
      <trkpt lat="44.76856" lon="6.9971">
        <ele>1902.6057796841</ele>
        <time>2020-02-19T09:39:13.670Z</time>
      </trkpt>
      <trkpt lat="44.76865" lon="6.99715">
        <ele>1903.2262715317</ele>
        <time>2020-02-19T09:39:18.670Z</time>
      </trkpt>
      <trkpt lat="44.76873" lon="6.99723">
        <ele>1905.3719946072</ele>
        <time>2020-02-19T09:39:29.700Z</time>
      </trkpt>
      <trkpt lat="44.76884" lon="6.99727">
        <ele>1907.241759928</ele>
        <time>2020-02-19T09:39:38.700Z</time>
      </trkpt>
      <trkpt lat="44.76883" lon="6.9974">
        <ele>1913</ele>
        <time>2020-02-19T09:40:05.670Z</time>
      </trkpt>
      <trkpt lat="44.76882" lon="6.99753">
        <ele>1914</ele>
        <time>2020-02-19T09:40:29.140Z</time>
      </trkpt>
      <trkpt lat="44.7688" lon="6.99741">
        <ele>1913.88199936</ele>
        <time>2020-02-19T09:41:28.670Z</time>
      </trkpt>
      <trkpt lat="44.76887" lon="6.99749">
        <ele>1917</ele>
        <time>2020-02-19T09:42:28.670Z</time>
      </trkpt>
      <trkpt lat="44.769" lon="6.99749">
        <ele>1920.81800064</ele>
        <time>2020-02-19T09:43:15.670Z</time>
      </trkpt>
      <trkpt lat="44.76911" lon="6.99746">
        <ele>1921.01800064</ele>
        <time>2020-02-19T09:43:27.670Z</time>
      </trkpt>
      <trkpt lat="44.76912" lon="6.99759">
        <ele>1927.2815655513</ele>
        <time>2020-02-19T09:43:55.100Z</time>
      </trkpt>
      <trkpt lat="44.7692" lon="6.99765">
        <ele>1928</ele>
        <time>2020-02-19T09:44:00.670Z</time>
      </trkpt>
      <trkpt lat="44.76928" lon="6.99773">
        <ele>1928.95400192</ele>
        <time>2020-02-19T09:44:10.670Z</time>
      </trkpt>
      <trkpt lat="44.76936" lon="6.99778">
        <ele>1933.45400192</ele>
        <time>2020-02-19T09:44:35.670Z</time>
      </trkpt>
      <trkpt lat="44.76945" lon="6.99779">
        <ele>1938.83600128</ele>
        <time>2020-02-19T09:45:11.670Z</time>
      </trkpt>
      <trkpt lat="44.76955" lon="6.99783">
        <ele>1940</ele>
        <time>2020-02-19T09:45:25.670Z</time>
      </trkpt>
      <trkpt lat="44.76957" lon="6.99795">
        <ele>1943.31800064</ele>
        <time>2020-02-19T09:45:40.670Z</time>
      </trkpt>
      <trkpt lat="44.76956" lon="6.99808">
        <ele>1945.8323354364</ele>
        <time>2020-02-19T09:45:56.670Z</time>
      </trkpt>
      <trkpt lat="44.76955" lon="6.99821">
        <ele>1947.91800064</ele>
        <time>2020-02-19T09:46:16.670Z</time>
      </trkpt>
      <trkpt lat="44.76962" lon="6.9983">
        <ele>1952.0340687994</ele>
        <time>2020-02-19T09:46:42.670Z</time>
      </trkpt>
      <trkpt lat="44.7697" lon="6.99835">
        <ele>1956.21800064</ele>
        <time>2020-02-19T09:46:59.670Z</time>
      </trkpt>
      <trkpt lat="44.76973" lon="6.99847">
        <ele>1957.3176826524</ele>
        <time>2020-02-19T09:47:10.670Z</time>
      </trkpt>
      <trkpt lat="44.76971" lon="6.99861">
        <ele>1958.8178182834</ele>
        <time>2020-02-19T09:47:25.670Z</time>
      </trkpt>
      <trkpt lat="44.76968" lon="6.99873">
        <ele>1963.3166334696</ele>
        <time>2020-02-19T09:47:40.670Z</time>
      </trkpt>
      <trkpt lat="44.76977" lon="6.99873">
        <ele>1965.3166334696</ele>
        <time>2020-02-19T09:48:00.670Z</time>
      </trkpt>
      <trkpt lat="44.76984" lon="6.99882">
        <ele>1972</ele>
        <time>2020-02-19T09:48:29.670Z</time>
      </trkpt>
      <trkpt lat="44.7698" lon="6.99895">
        <ele>1972.8049525052</ele>
        <time>2020-02-19T09:48:41.700Z</time>
      </trkpt>
      <trkpt lat="44.76981" lon="6.99908">
        <ele>1978.6716739187</ele>
        <time>2020-02-19T09:49:06.670Z</time>
      </trkpt>
      <trkpt lat="44.76983" lon="6.9992">
        <ele>1980</ele>
        <time>2020-02-19T09:49:25.670Z</time>
      </trkpt>
      <trkpt lat="44.76993" lon="6.99918">
        <ele>1980.07200256</ele>
        <time>2020-02-19T09:49:37.670Z</time>
      </trkpt>
      <trkpt lat="44.76993" lon="6.99906">
        <ele>1984.43600128</ele>
        <time>2020-02-19T09:49:49.670Z</time>
      </trkpt>
      <trkpt lat="44.77001" lon="6.99899">
        <ele>1987.11800064</ele>
        <time>2020-02-19T09:50:08.670Z</time>
      </trkpt>
      <trkpt lat="44.77007" lon="6.9991">
        <ele>1988.91800064</ele>
        <time>2020-02-19T09:50:26.670Z</time>
      </trkpt>
      <trkpt lat="44.77016" lon="6.9991">
        <ele>1993.6646708729</ele>
        <time>2020-02-19T09:50:46.670Z</time>
      </trkpt>
      <trkpt lat="44.77023" lon="6.99902">
        <ele>1995</ele>
        <time>2020-02-19T09:51:03.670Z</time>
      </trkpt>
      <trkpt lat="44.77031" lon="6.99908">
        <ele>2000.41800064</ele>
        <time>2020-02-19T09:51:31.670Z</time>
      </trkpt>
      <trkpt lat="44.77022" lon="6.99909">
        <ele>2000.98199936</ele>
        <time>2020-02-19T09:51:57.670Z</time>
      </trkpt>
      <trkpt lat="44.77028" lon="6.99922">
        <ele>2000.18199936</ele>
        <time>2020-02-19T09:52:55.670Z</time>
      </trkpt>
      <trkpt lat="44.77036" lon="6.99929">
        <ele>2003.2306927922</ele>
        <time>2020-02-19T09:55:08.670Z</time>
      </trkpt>
      <trkpt lat="44.77043" lon="6.9994">
        <ele>2005.3173657055</ele>
        <time>2020-02-19T09:55:20.670Z</time>
      </trkpt>
      <trkpt lat="44.77049" lon="6.9995">
        <ele>2010.11800064</ele>
        <time>2020-02-19T09:55:38.670Z</time>
      </trkpt>
      <trkpt lat="44.77055" lon="6.99958">
        <ele>2011</ele>
        <time>2020-02-19T09:55:56.670Z</time>
      </trkpt>
      <trkpt lat="44.7706" lon="6.99969">
        <ele>2015</ele>
        <time>2020-02-19T09:56:11.670Z</time>
      </trkpt>
      <trkpt lat="44.77061" lon="6.99982">
        <ele>2015.9170826769</ele>
        <time>2020-02-19T09:56:26.670Z</time>
      </trkpt>
      <trkpt lat="44.77062" lon="6.99995">
        <ele>2019</ele>
        <time>2020-02-19T09:56:42.670Z</time>
      </trkpt>
      <trkpt lat="44.77064" lon="7.00008">
        <ele>2022.68199936</ele>
        <time>2020-02-19T09:57:00.670Z</time>
      </trkpt>
      <trkpt lat="44.77067" lon="7.0002">
        <ele>2023.63600128</ele>
        <time>2020-02-19T09:57:15.670Z</time>
      </trkpt>
      <trkpt lat="44.77077" lon="7.00021">
        <ele>2027</ele>
        <time>2020-02-19T09:57:34.670Z</time>
      </trkpt>
      <trkpt lat="44.77083" lon="7.00031">
        <ele>2030.10800384</ele>
        <time>2020-02-19T09:57:52.670Z</time>
      </trkpt>
      <trkpt lat="44.77088" lon="7.00043">
        <ele>2033</ele>
        <time>2020-02-19T09:58:05.670Z</time>
      </trkpt>
      <trkpt lat="44.77095" lon="7.0005">
        <ele>2033</ele>
        <time>2020-02-19T09:58:13.670Z</time>
      </trkpt>
      <trkpt lat="44.77103" lon="7.00058">
        <ele>2033.61800064</ele>
        <time>2020-02-19T09:58:23.670Z</time>
      </trkpt>
      <trkpt lat="44.7711" lon="7.00067">
        <ele>2035.4331340946</ele>
        <time>2020-02-19T09:58:34.670Z</time>
      </trkpt>
      <trkpt lat="44.77118" lon="7.00074">
        <ele>2036.916</ele>
        <time>2020-02-19T09:58:46.670Z</time>
      </trkpt>
      <trkpt lat="44.77127" lon="7.0008">
        <ele>2037.07200256</ele>
        <time>2020-02-19T09:58:57.670Z</time>
      </trkpt>
      <trkpt lat="44.77133" lon="7.00089">
        <ele>2041.21800064</ele>
        <time>2020-02-19T09:59:09.670Z</time>
      </trkpt>
      <trkpt lat="44.77139" lon="7.00099">
        <ele>2043.03600128</ele>
        <time>2020-02-19T09:59:22.670Z</time>
      </trkpt>
      <trkpt lat="44.77143" lon="7.00112">
        <ele>2044</ele>
        <time>2020-02-19T09:59:39.670Z</time>
      </trkpt>
      <trkpt lat="44.77145" lon="7.00125">
        <ele>2047.5828352365</ele>
        <time>2020-02-19T09:59:54.670Z</time>
      </trkpt>
      <trkpt lat="44.77149" lon="7.00137">
        <ele>2047.5694301121</ele>
        <time>2020-02-19T10:00:04.670Z</time>
      </trkpt>
      <trkpt lat="44.77155" lon="7.00146">
        <ele>2051.23600128</ele>
        <time>2020-02-19T10:00:18.670Z</time>
      </trkpt>
      <trkpt lat="44.77164" lon="7.00146">
        <ele>2054.2694628219</ele>
        <time>2020-02-19T10:00:30.670Z</time>
      </trkpt>
      <trkpt lat="44.77171" lon="7.00154">
        <ele>2057.5170343997</ele>
        <time>2020-02-19T10:00:42.670Z</time>
      </trkpt>
      <trkpt lat="44.7718" lon="7.00159">
        <ele>2058</ele>
        <time>2020-02-19T10:00:52.670Z</time>
      </trkpt>
      <trkpt lat="44.77189" lon="7.00163">
        <ele>2059.052429016</ele>
        <time>2020-02-19T10:01:07.670Z</time>
      </trkpt>
      <trkpt lat="44.77193" lon="7.00175">
        <ele>2062.9154645215</ele>
        <time>2020-02-19T10:01:26.670Z</time>
      </trkpt>
      <trkpt lat="44.77187" lon="7.00185">
        <ele>2063.9520971164</ele>
        <time>2020-02-19T10:01:40.670Z</time>
      </trkpt>
      <trkpt lat="44.7718" lon="7.00194">
        <ele>2066.5170343997</ele>
        <time>2020-02-19T10:01:52.670Z</time>
      </trkpt>
      <trkpt lat="44.7718" lon="7.00207">
        <ele>2067.71800064</ele>
        <time>2020-02-19T10:02:04.670Z</time>
      </trkpt>
      <trkpt lat="44.77183" lon="7.00219">
        <ele>2069.03600128</ele>
        <time>2020-02-19T10:02:17.670Z</time>
      </trkpt>
      <trkpt lat="44.77188" lon="7.0023">
        <ele>2071</ele>
        <time>2020-02-19T10:02:28.670Z</time>
      </trkpt>
      <trkpt lat="44.77187" lon="7.00243">
        <ele>2074.1177650346</ele>
        <time>2020-02-19T10:02:48.670Z</time>
      </trkpt>
      <trkpt lat="44.77184" lon="7.00255">
        <ele>2075.6172348648</ele>
        <time>2020-02-19T10:03:03.670Z</time>
      </trkpt>
      <trkpt lat="44.77193" lon="7.0026">
        <ele>2079.6346346038</ele>
        <time>2020-02-19T10:03:30.670Z</time>
      </trkpt>
      <trkpt lat="44.77201" lon="7.00256">
        <ele>2082.0349653211</ele>
        <time>2020-02-19T10:03:42.670Z</time>
      </trkpt>
      <trkpt lat="44.7721" lon="7.00252">
        <ele>2084.2352357816</ele>
        <time>2020-02-19T10:03:53.670Z</time>
      </trkpt>
      <trkpt lat="44.7722" lon="7.00249">
        <ele>2085.71800064</ele>
        <time>2020-02-19T10:04:04.670Z</time>
      </trkpt>
      <trkpt lat="44.77222" lon="7.00261">
        <ele>2089.5988378295</ele>
        <time>2020-02-19T10:04:23.670Z</time>
      </trkpt>
      <trkpt lat="44.7723" lon="7.00266">
        <ele>2093</ele>
        <time>2020-02-19T10:04:49.670Z</time>
      </trkpt>
      <trkpt lat="44.77239" lon="7.00261">
        <ele>2095.8605603187</ele>
        <time>2020-02-19T10:05:04.670Z</time>
      </trkpt>
      <trkpt lat="44.77235" lon="7.00273">
        <ele>2096.0601818448</ele>
        <time>2020-02-19T10:05:17.670Z</time>
      </trkpt>
      <trkpt lat="44.77234" lon="7.00286">
        <ele>2099.2841471476</ele>
        <time>2020-02-19T10:05:34.670Z</time>
      </trkpt>
      <trkpt lat="44.77243" lon="7.00287">
        <ele>2101.0480962232</ele>
        <time>2020-02-19T10:05:57.670Z</time>
      </trkpt>
      <trkpt lat="44.77244" lon="7.003">
        <ele>2107</ele>
        <time>2020-02-19T10:06:23.670Z</time>
      </trkpt>
      <trkpt lat="44.77243" lon="7.00312">
        <ele>2109.43600128</ele>
        <time>2020-02-19T10:06:39.670Z</time>
      </trkpt>
      <trkpt lat="44.77252" lon="7.00314">
        <ele>2111</ele>
        <time>2020-02-19T10:06:52.670Z</time>
      </trkpt>
      <trkpt lat="44.77261" lon="7.00311">
        <ele>2112.63600128</ele>
        <time>2020-02-19T10:07:05.670Z</time>
      </trkpt>
      <trkpt lat="44.7727" lon="7.00313">
        <ele>2115.07200256</ele>
        <time>2020-02-19T10:07:22.670Z</time>
      </trkpt>
      <trkpt lat="44.77274" lon="7.00326">
        <ele>2118.9652186388</ele>
        <time>2020-02-19T10:07:37.660Z</time>
      </trkpt>
      <trkpt lat="44.77278" lon="7.00338">
        <ele>2120.07200256</ele>
        <time>2020-02-19T10:07:57.670Z</time>
      </trkpt>
      <trkpt lat="44.77287" lon="7.00344">
        <ele>2124.51800064</ele>
        <time>2020-02-19T10:08:12.670Z</time>
      </trkpt>
      <trkpt lat="44.77294" lon="7.00353">
        <ele>2126.95400192</ele>
        <time>2020-02-19T10:08:30.670Z</time>
      </trkpt>
      <trkpt lat="44.77301" lon="7.00363">
        <ele>2129</ele>
        <time>2020-02-19T10:08:43.670Z</time>
      </trkpt>
      <trkpt lat="44.77307" lon="7.00372">
        <ele>2130.0538403816</ele>
        <time>2020-02-19T10:08:57.670Z</time>
      </trkpt>
      <trkpt lat="44.77314" lon="7.00382">
        <ele>2133</ele>
        <time>2020-02-19T10:09:08.670Z</time>
      </trkpt>
      <trkpt lat="44.77321" lon="7.00389">
        <ele>2132.48199936</ele>
        <time>2020-02-19T10:09:22.670Z</time>
      </trkpt>
      <trkpt lat="44.7733" lon="7.00394">
        <ele>2132.81800064</ele>
        <time>2020-02-19T10:09:35.670Z</time>
      </trkpt>
      <trkpt lat="44.77338" lon="7.00401">
        <ele>2135.8174529404</ele>
        <time>2020-02-19T10:09:55.670Z</time>
      </trkpt>
      <trkpt lat="44.77346" lon="7.00408">
        <ele>2140.25400192</ele>
        <time>2020-02-19T10:10:11.670Z</time>
      </trkpt>
      <trkpt lat="44.77351" lon="7.00418">
        <ele>2142</ele>
        <time>2020-02-19T10:10:21.670Z</time>
      </trkpt>
      <trkpt lat="44.77356" lon="7.00429">
        <ele>2142.91800064</ele>
        <time>2020-02-19T10:10:36.670Z</time>
      </trkpt>
      <trkpt lat="44.77363" lon="7.00437">
        <ele>2145.9152022323</ele>
        <time>2020-02-19T10:10:56.670Z</time>
      </trkpt>
      <trkpt lat="44.77356" lon="7.00445">
        <ele>2150.55400192</ele>
        <time>2020-02-19T10:11:12.670Z</time>
      </trkpt>
      <trkpt lat="44.77347" lon="7.0045">
        <ele>2152</ele>
        <time>2020-02-19T10:11:24.670Z</time>
      </trkpt>
      <trkpt lat="44.77334" lon="7.00445">
        <ele>2153.01800064</ele>
        <time>2020-02-19T10:11:37.670Z</time>
      </trkpt>
      <trkpt lat="44.77325" lon="7.00439">
        <ele>2153.71800064</ele>
        <time>2020-02-19T10:11:44.670Z</time>
      </trkpt>
      <trkpt lat="44.77316" lon="7.00439">
        <ele>2154</ele>
        <time>2020-02-19T10:11:53.670Z</time>
      </trkpt>
      <trkpt lat="44.7732" lon="7.0045">
        <ele>2156.51800064</ele>
        <time>2020-02-19T10:12:12.670Z</time>
      </trkpt>
      <trkpt lat="44.77329" lon="7.00456">
        <ele>2157.91800064</ele>
        <time>2020-02-19T10:12:26.670Z</time>
      </trkpt>
      <trkpt lat="44.77337" lon="7.00462">
        <ele>2161</ele>
        <time>2020-02-19T10:12:43.670Z</time>
      </trkpt>
      <trkpt lat="44.77346" lon="7.00467">
        <ele>2164.68199936</ele>
        <time>2020-02-19T10:13:00.670Z</time>
      </trkpt>
      <trkpt lat="44.77345" lon="7.00479">
        <ele>2169</ele>
        <time>2020-02-19T10:13:34.670Z</time>
      </trkpt>
      <trkpt lat="44.77336" lon="7.00483">
        <ele>2173.196515132</ele>
        <time>2020-02-19T10:13:53.670Z</time>
      </trkpt>
      <trkpt lat="44.7734" lon="7.00495">
        <ele>2175.15400192</ele>
        <time>2020-02-19T10:14:14.670Z</time>
      </trkpt>
      <trkpt lat="44.77337" lon="7.00507">
        <ele>2181.21800064</ele>
        <time>2020-02-19T10:14:39.670Z</time>
      </trkpt>
      <trkpt lat="44.77328" lon="7.00514">
        <ele>2182.41800064</ele>
        <time>2020-02-19T10:14:51.670Z</time>
      </trkpt>
      <trkpt lat="44.77321" lon="7.00522">
        <ele>2184.7675349211</ele>
        <time>2020-02-19T10:15:08.670Z</time>
      </trkpt>
      <trkpt lat="44.7733" lon="7.00526">
        <ele>2180.6829506096</ele>
        <time>2020-02-19T10:15:30.670Z</time>
      </trkpt>
      <trkpt lat="44.77339" lon="7.0053">
        <ele>2183.7011064236</ele>
        <time>2020-02-19T10:15:43.670Z</time>
      </trkpt>
      <trkpt lat="44.77347" lon="7.00534">
        <ele>2186</ele>
        <time>2020-02-19T10:15:56.670Z</time>
      </trkpt>
      <trkpt lat="44.77344" lon="7.00547">
        <ele>2195.23600128</ele>
        <time>2020-02-19T10:16:23.670Z</time>
      </trkpt>
      <trkpt lat="44.77336" lon="7.00554">
        <ele>2196.01800064</ele>
        <time>2020-02-19T10:16:37.670Z</time>
      </trkpt>
      <trkpt lat="44.77329" lon="7.00563">
        <ele>2198.0900032</ele>
        <time>2020-02-19T10:16:49.670Z</time>
      </trkpt>
      <trkpt lat="44.77323" lon="7.00574">
        <ele>2202.8886735594</ele>
        <time>2020-02-19T10:17:06.670Z</time>
      </trkpt>
      <trkpt lat="44.77333" lon="7.00575">
        <ele>2206.11800064</ele>
        <time>2020-02-19T10:17:28.670Z</time>
      </trkpt>
      <trkpt lat="44.7733" lon="7.00588">
        <ele>2209.83600128</ele>
        <time>2020-02-19T10:17:51.670Z</time>
      </trkpt>
      <trkpt lat="44.77324" lon="7.00598">
        <ele>2211</ele>
        <time>2020-02-19T10:18:07.670Z</time>
      </trkpt>
      <trkpt lat="44.77319" lon="7.00609">
        <ele>2213.4674042824</ele>
        <time>2020-02-19T10:18:23.670Z</time>
      </trkpt>
      <trkpt lat="44.77318" lon="7.00622">
        <ele>2215.91800064</ele>
        <time>2020-02-19T10:18:36.670Z</time>
      </trkpt>
      <trkpt lat="44.77313" lon="7.00633">
        <ele>2219</ele>
        <time>2020-02-19T10:18:50.670Z</time>
      </trkpt>
      <trkpt lat="44.77313" lon="7.00646">
        <ele>2218.18199936</ele>
        <time>2020-02-19T10:19:05.670Z</time>
      </trkpt>
      <trkpt lat="44.77307" lon="7.00656">
        <ele>2224.91800064</ele>
        <time>2020-02-19T10:19:26.670Z</time>
      </trkpt>
      <trkpt lat="44.77301" lon="7.00667">
        <ele>2228.51800064</ele>
        <time>2020-02-19T10:19:42.670Z</time>
      </trkpt>
      <trkpt lat="44.77299" lon="7.00679">
        <ele>2229</ele>
        <time>2020-02-19T10:20:02.670Z</time>
      </trkpt>
      <trkpt lat="44.77299" lon="7.00693">
        <ele>2230.8110079963</ele>
        <time>2020-02-19T10:20:25.670Z</time>
      </trkpt>
      <trkpt lat="44.77307" lon="7.007">
        <ele>2235.51800064</ele>
        <time>2020-02-19T10:20:42.670Z</time>
      </trkpt>
      <trkpt lat="44.77306" lon="7.00713">
        <ele>2240</ele>
        <time>2020-02-19T10:21:09.670Z</time>
      </trkpt>
      <trkpt lat="44.773" lon="7.00722">
        <ele>2243.67200256</ele>
        <time>2020-02-19T10:21:26.670Z</time>
      </trkpt>
      <trkpt lat="44.77291" lon="7.00727">
        <ele>2245</ele>
        <time>2020-02-19T10:21:44.670Z</time>
      </trkpt>
      <trkpt lat="44.77283" lon="7.00732">
        <ele>2249.25400192</ele>
        <time>2020-02-19T10:22:01.670Z</time>
      </trkpt>
      <trkpt lat="44.77275" lon="7.00739">
        <ele>2250</ele>
        <time>2020-02-19T10:22:19.670Z</time>
      </trkpt>
      <trkpt lat="44.77267" lon="7.00746">
        <ele>2251.7903385383</ele>
        <time>2020-02-19T10:23:25.670Z</time>
      </trkpt>
      <trkpt lat="44.77275" lon="7.00739">
        <ele>2255.96399872</ele>
        <time>2020-02-19T10:24:42.670Z</time>
      </trkpt>
      <trkpt lat="44.77285" lon="7.0074">
        <ele>2255.21800064</ele>
        <time>2020-02-19T10:26:09.670Z</time>
      </trkpt>
      <trkpt lat="44.77284" lon="7.00753">
        <ele>2256.65400192</ele>
        <time>2020-02-19T10:29:09.670Z</time>
      </trkpt>
      <trkpt lat="44.77293" lon="7.00759">
        <ele>2259</ele>
        <time>2020-02-19T10:29:20.670Z</time>
      </trkpt>
      <trkpt lat="44.77302" lon="7.00764">
        <ele>2260.43600128</ele>
        <time>2020-02-19T10:29:34.670Z</time>
      </trkpt>
      <trkpt lat="44.77298" lon="7.00775">
        <ele>2265.8305091667</ele>
        <time>2020-02-19T10:30:06.670Z</time>
      </trkpt>
      <trkpt lat="44.7729" lon="7.0078">
        <ele>2266.41800064</ele>
        <time>2020-02-19T10:30:21.670Z</time>
      </trkpt>
      <trkpt lat="44.77281" lon="7.00784">
        <ele>2270.67200256</ele>
        <time>2020-02-19T10:30:36.670Z</time>
      </trkpt>
      <trkpt lat="44.77285" lon="7.00795">
        <ele>2274.91800064</ele>
        <time>2020-02-19T10:31:46.670Z</time>
      </trkpt>
      <trkpt lat="44.77294" lon="7.00798">
        <ele>2276.43600128</ele>
        <time>2020-02-19T10:32:04.670Z</time>
      </trkpt>
      <trkpt lat="44.77304" lon="7.00799">
        <ele>2278.95400192</ele>
        <time>2020-02-19T10:32:20.670Z</time>
      </trkpt>
      <trkpt lat="44.77314" lon="7.00798">
        <ele>2281.43600128</ele>
        <time>2020-02-19T10:32:39.670Z</time>
      </trkpt>
      <trkpt lat="44.77322" lon="7.00803">
        <ele>2283</ele>
        <time>2020-02-19T10:33:04.670Z</time>
      </trkpt>
      <trkpt lat="44.77316" lon="7.00791">
        <ele>2283</ele>
        <time>2020-02-19T10:33:11.700Z</time>
      </trkpt>
      <trkpt lat="44.77314" lon="7.00804">
        <ele>2283</ele>
        <time>2020-02-19T10:33:36.670Z</time>
      </trkpt>
      <trkpt lat="44.77308" lon="7.00816">
        <ele>2287.2172171056</ele>
        <time>2020-02-19T10:35:09.670Z</time>
      </trkpt>
      <trkpt lat="44.77303" lon="7.00827">
        <ele>2288.61800064</ele>
        <time>2020-02-19T10:35:23.670Z</time>
      </trkpt>
      <trkpt lat="44.77297" lon="7.00836">
        <ele>2291.1162325395</ele>
        <time>2020-02-19T10:35:38.670Z</time>
      </trkpt>
      <trkpt lat="44.77291" lon="7.00846">
        <ele>2292.71800064</ele>
        <time>2020-02-19T10:35:54.670Z</time>
      </trkpt>
      <trkpt lat="44.773" lon="7.00853">
        <ele>2296.247158053</ele>
        <time>2020-02-19T10:36:15.670Z</time>
      </trkpt>
      <trkpt lat="44.77309" lon="7.00857">
        <ele>2296.31800064</ele>
        <time>2020-02-19T10:36:30.670Z</time>
      </trkpt>
      <trkpt lat="44.77318" lon="7.00857">
        <ele>2299.3486976184</ele>
        <time>2020-02-19T10:36:48.670Z</time>
      </trkpt>
      <trkpt lat="44.77327" lon="7.00862">
        <ele>2302.43600128</ele>
        <time>2020-02-19T10:37:09.670Z</time>
      </trkpt>
      <trkpt lat="44.77334" lon="7.00869">
        <ele>2305.07200256</ele>
        <time>2020-02-19T10:37:32.670Z</time>
      </trkpt>
      <trkpt lat="44.77343" lon="7.00871">
        <ele>2307</ele>
        <time>2020-02-19T10:37:41.670Z</time>
      </trkpt>
      <trkpt lat="44.77352" lon="7.00872">
        <ele>2308.03600128</ele>
        <time>2020-02-19T10:37:57.670Z</time>
      </trkpt>
      <trkpt lat="44.77359" lon="7.00882">
        <ele>2313</ele>
        <time>2020-02-19T10:38:33.670Z</time>
      </trkpt>
      <trkpt lat="44.77369" lon="7.00885">
        <ele>2316</ele>
        <time>2020-02-19T10:38:50.670Z</time>
      </trkpt>
      <trkpt lat="44.77378" lon="7.00887">
        <ele>2316.31800064</ele>
        <time>2020-02-19T10:39:00.670Z</time>
      </trkpt>
      <trkpt lat="44.77387" lon="7.00891">
        <ele>2318.0029044697</ele>
        <time>2020-02-19T10:39:12.670Z</time>
      </trkpt>
      <trkpt lat="44.77396" lon="7.00888">
        <ele>2319.9152022323</ele>
        <time>2020-02-19T10:39:26.670Z</time>
      </trkpt>
      <trkpt lat="44.77396" lon="7.00902">
        <ele>2324.03600128</ele>
        <time>2020-02-19T10:40:02.670Z</time>
      </trkpt>
      <trkpt lat="44.77389" lon="7.00909">
        <ele>2329.11800064</ele>
        <time>2020-02-19T10:40:18.670Z</time>
      </trkpt>
      <trkpt lat="44.7738" lon="7.00914">
        <ele>2331.63600128</ele>
        <time>2020-02-19T10:40:35.670Z</time>
      </trkpt>
      <trkpt lat="44.77375" lon="7.00926">
        <ele>2333.41800064</ele>
        <time>2020-02-19T10:40:51.670Z</time>
      </trkpt>
      <trkpt lat="44.77381" lon="7.00937">
        <ele>2335</ele>
        <time>2020-02-19T10:41:21.670Z</time>
      </trkpt>
      <trkpt lat="44.7739" lon="7.00937">
        <ele>2337.47200256</ele>
        <time>2020-02-19T10:41:33.670Z</time>
      </trkpt>
      <trkpt lat="44.77399" lon="7.00937">
        <ele>2340.6311074357</ele>
        <time>2020-02-19T10:41:45.670Z</time>
      </trkpt>
      <trkpt lat="44.77389" lon="7.00936">
        <ele>2344</ele>
        <time>2020-02-19T10:42:11.670Z</time>
      </trkpt>
      <trkpt lat="44.77398" lon="7.00933">
        <ele>2345.1944159117</ele>
        <time>2020-02-19T10:42:31.670Z</time>
      </trkpt>
      <trkpt lat="44.77406" lon="7.00928">
        <ele>2349.15400192</ele>
        <time>2020-02-19T10:42:44.670Z</time>
      </trkpt>
      <trkpt lat="44.77415" lon="7.0093">
        <ele>2350.11800064</ele>
        <time>2020-02-19T10:42:58.670Z</time>
      </trkpt>
      <trkpt lat="44.77424" lon="7.00934">
        <ele>2351</ele>
        <time>2020-02-19T10:43:14.670Z</time>
      </trkpt>
      <trkpt lat="44.77434" lon="7.00936">
        <ele>2357.6610183335</ele>
        <time>2020-02-19T10:43:36.670Z</time>
      </trkpt>
      <trkpt lat="44.77443" lon="7.00938">
        <ele>2358</ele>
        <time>2020-02-19T10:43:43.670Z</time>
      </trkpt>
      <trkpt lat="44.77452" lon="7.00935">
        <ele>2360.75400192</ele>
        <time>2020-02-19T10:44:06.670Z</time>
      </trkpt>
      <trkpt lat="44.77461" lon="7.00937">
        <ele>2362.7171520055</ele>
        <time>2020-02-19T10:44:24.670Z</time>
      </trkpt>
      <trkpt lat="44.7747" lon="7.00933">
        <ele>2365</ele>
        <time>2020-02-19T10:44:43.670Z</time>
      </trkpt>
      <trkpt lat="44.77479" lon="7.00935">
        <ele>2365.91800064</ele>
        <time>2020-02-19T10:44:56.670Z</time>
      </trkpt>
      <trkpt lat="44.77489" lon="7.0093">
        <ele>2368.8828830907</ele>
        <time>2020-02-19T10:45:08.670Z</time>
      </trkpt>
      <trkpt lat="44.77497" lon="7.00924">
        <ele>2368.2792785867</ele>
        <time>2020-02-19T10:45:14.700Z</time>
      </trkpt>
      <trkpt lat="44.77506" lon="7.00917">
        <ele>2373.1142309103</ele>
        <time>2020-02-19T10:45:28.670Z</time>
      </trkpt>
      <trkpt lat="44.77513" lon="7.00924">
        <ele>2374</ele>
        <time>2020-02-19T10:45:51.800Z</time>
      </trkpt>
      <trkpt lat="44.77506" lon="7.00931">
        <ele>2374</ele>
        <time>2020-02-19T10:45:54.670Z</time>
      </trkpt>
      <trkpt lat="44.77499" lon="7.00941">
        <ele>2376.15400192</ele>
        <time>2020-02-19T10:46:04.670Z</time>
      </trkpt>
      <trkpt lat="44.77491" lon="7.00949">
        <ele>2378.1162325395</ele>
        <time>2020-02-19T10:46:18.670Z</time>
      </trkpt>
      <trkpt lat="44.77484" lon="7.00957">
        <ele>2380.25400192</ele>
        <time>2020-02-19T10:46:31.670Z</time>
      </trkpt>
      <trkpt lat="44.77492" lon="7.00962">
        <ele>2382.2215599383</ele>
        <time>2020-02-19T10:47:10.670Z</time>
      </trkpt>
      <trkpt lat="44.77501" lon="7.00965">
        <ele>2387</ele>
        <time>2020-02-19T10:47:24.670Z</time>
      </trkpt>
      <trkpt lat="44.7751" lon="7.00968">
        <ele>2389.27200256</ele>
        <time>2020-02-19T10:47:40.670Z</time>
      </trkpt>
      <trkpt lat="44.77502" lon="7.00976">
        <ele>2392</ele>
        <time>2020-02-19T10:47:56.670Z</time>
      </trkpt>
      <trkpt lat="44.77496" lon="7.00986">
        <ele>2393</ele>
        <time>2020-02-19T10:48:10.670Z</time>
      </trkpt>
      <trkpt lat="44.7749" lon="7.00995">
        <ele>2395.15400192</ele>
        <time>2020-02-19T10:48:24.670Z</time>
      </trkpt>
      <trkpt lat="44.77499" lon="7.00999">
        <ele>2395.3950359248</ele>
        <time>2020-02-19T10:48:53.670Z</time>
      </trkpt>
      <trkpt lat="44.77507" lon="7.01004">
        <ele>2398.2124761248</ele>
        <time>2020-02-19T10:49:09.670Z</time>
      </trkpt>
      <trkpt lat="44.77516" lon="7.01001">
        <ele>2402</ele>
        <time>2020-02-19T10:49:37.670Z</time>
      </trkpt>
      <trkpt lat="44.77513" lon="7.01013">
        <ele>2407.5165501357</ele>
        <time>2020-02-19T10:50:12.670Z</time>
      </trkpt>
      <trkpt lat="44.77508" lon="7.01023">
        <ele>2408.23600128</ele>
        <time>2020-02-19T10:50:28.670Z</time>
      </trkpt>
      <trkpt lat="44.77503" lon="7.01035">
        <ele>2409.36399872</ele>
        <time>2020-02-19T10:50:50.670Z</time>
      </trkpt>
      <trkpt lat="44.77493" lon="7.01032">
        <ele>2408.76399872</ele>
        <time>2020-02-19T10:50:53.670Z</time>
      </trkpt>
      <trkpt lat="44.77503" lon="7.0103">
        <ele>2409.03600128</ele>
        <time>2020-02-19T10:51:02.670Z</time>
      </trkpt>
      <trkpt lat="44.77512" lon="7.01029">
        <ele>2413.70800384</ele>
        <time>2020-02-19T10:51:13.670Z</time>
      </trkpt>
      <trkpt lat="44.77521" lon="7.01028">
        <ele>2416</ele>
        <time>2020-02-19T10:51:40.670Z</time>
      </trkpt>
      <trkpt lat="44.77524" lon="7.01041">
        <ele>2421.61800064</ele>
        <time>2020-02-19T10:52:23.670Z</time>
      </trkpt>
      <trkpt lat="44.77516" lon="7.01047">
        <ele>2424</ele>
        <time>2020-02-19T10:53:05.670Z</time>
      </trkpt>
      <trkpt lat="44.7751" lon="7.01057">
        <ele>2425</ele>
        <time>2020-02-19T10:53:20.670Z</time>
      </trkpt>
      <trkpt lat="44.77519" lon="7.01059">
        <ele>2427.55400192</ele>
        <time>2020-02-19T10:54:12.670Z</time>
      </trkpt>
      <trkpt lat="44.77529" lon="7.0106">
        <ele>2429</ele>
        <time>2020-02-19T10:54:26.670Z</time>
      </trkpt>
      <trkpt lat="44.77536" lon="7.01053">
        <ele>2432</ele>
        <time>2020-02-19T10:54:41.670Z</time>
      </trkpt>
      <trkpt lat="44.77546" lon="7.01052">
        <ele>2434.75400192</ele>
        <time>2020-02-19T10:54:56.670Z</time>
      </trkpt>
      <trkpt lat="44.77555" lon="7.01055">
        <ele>2437</ele>
        <time>2020-02-19T10:55:09.670Z</time>
      </trkpt>
      <trkpt lat="44.77552" lon="7.01068">
        <ele>2441</ele>
        <time>2020-02-19T10:55:39.670Z</time>
      </trkpt>
      <trkpt lat="44.77545" lon="7.01078">
        <ele>2441.63399936</ele>
        <time>2020-02-19T10:55:50.660Z</time>
      </trkpt>
      <trkpt lat="44.7754" lon="7.01088">
        <ele>2445.87200256</ele>
        <time>2020-02-19T10:56:04.670Z</time>
      </trkpt>
      <trkpt lat="44.77535" lon="7.01099">
        <ele>2447.41800064</ele>
        <time>2020-02-19T10:56:31.670Z</time>
      </trkpt>
      <trkpt lat="44.77528" lon="7.01109">
        <ele>2449.9499004088</ele>
        <time>2020-02-19T10:56:50.670Z</time>
      </trkpt>
      <trkpt lat="44.77522" lon="7.01118">
        <ele>2452.0179467939</ele>
        <time>2020-02-19T10:57:07.670Z</time>
      </trkpt>
      <trkpt lat="44.77517" lon="7.01129">
        <ele>2459</ele>
        <time>2020-02-19T10:58:05.670Z</time>
      </trkpt>
      <trkpt lat="44.77509" lon="7.01137">
        <ele>2459.9152022323</ele>
        <time>2020-02-19T10:58:26.670Z</time>
      </trkpt>
      <trkpt lat="44.77501" lon="7.01143">
        <ele>2464</ele>
        <time>2020-02-19T10:58:38.670Z</time>
      </trkpt>
      <trkpt lat="44.77492" lon="7.01157">
        <ele>2463.8821173558</ele>
        <time>2020-02-19T10:58:58.670Z</time>
      </trkpt>
      <trkpt lat="44.77483" lon="7.01149">
        <ele>2463.7822173517</ele>
        <time>2020-02-19T10:58:59.670Z</time>
      </trkpt>
      <trkpt lat="44.77475" lon="7.01144">
        <ele>2463.5824173435</ele>
        <time>2020-02-19T10:59:01.670Z</time>
      </trkpt>
      <trkpt lat="44.77487" lon="7.01137">
        <ele>2465.63600128</ele>
        <time>2020-02-19T10:59:20.670Z</time>
      </trkpt>
      <trkpt lat="44.77483" lon="7.01149">
        <ele>2473.35400192</ele>
        <time>2020-02-19T10:59:58.670Z</time>
      </trkpt>
      <trkpt lat="44.77477" lon="7.0116">
        <ele>2476</ele>
        <time>2020-02-19T11:00:25.670Z</time>
      </trkpt>
      <trkpt lat="44.7747" lon="7.01167">
        <ele>2479.31800064</ele>
        <time>2020-02-19T11:00:40.670Z</time>
      </trkpt>
      <trkpt lat="44.77478" lon="7.01173">
        <ele>2479.91800064</ele>
        <time>2020-02-19T11:01:06.670Z</time>
      </trkpt>
      <trkpt lat="44.77487" lon="7.01175">
        <ele>2480.6950628971</ele>
        <time>2020-02-19T11:01:24.670Z</time>
      </trkpt>
      <trkpt lat="44.77496" lon="7.01178">
        <ele>2484.43600128</ele>
        <time>2020-02-19T11:01:39.670Z</time>
      </trkpt>
      <trkpt lat="44.77506" lon="7.01178">
        <ele>2486.91800064</ele>
        <time>2020-02-19T11:01:56.670Z</time>
      </trkpt>
      <trkpt lat="44.77506" lon="7.0119">
        <ele>2494</ele>
        <time>2020-02-19T11:02:43.670Z</time>
      </trkpt>
      <trkpt lat="44.77498" lon="7.01198">
        <ele>2495.07200256</ele>
        <time>2020-02-19T11:02:57.670Z</time>
      </trkpt>
      <trkpt lat="44.77491" lon="7.01206">
        <ele>2499</ele>
        <time>2020-02-19T11:03:14.670Z</time>
      </trkpt>
      <trkpt lat="44.775" lon="7.01205">
        <ele>2498.31800064</ele>
        <time>2020-02-19T11:03:40.670Z</time>
      </trkpt>
      <trkpt lat="44.77509" lon="7.01204">
        <ele>2499.05400192</ele>
        <time>2020-02-19T11:03:57.670Z</time>
      </trkpt>
      <trkpt lat="44.77518" lon="7.01202">
        <ele>2503.83600128</ele>
        <time>2020-02-19T11:04:16.670Z</time>
      </trkpt>
      <trkpt lat="44.77526" lon="7.01193">
        <ele>2504</ele>
        <time>2020-02-19T11:04:23.670Z</time>
      </trkpt>
      <trkpt lat="44.77537" lon="7.0119">
        <ele>2507.3950359248</ele>
        <time>2020-02-19T11:04:43.670Z</time>
      </trkpt>
      <trkpt lat="44.77546" lon="7.01187">
        <ele>2507.91800064</ele>
        <time>2020-02-19T11:05:06.670Z</time>
      </trkpt>
      <trkpt lat="44.77556" lon="7.01184">
        <ele>2512</ele>
        <time>2020-02-19T11:05:18.670Z</time>
      </trkpt>
      <trkpt lat="44.77564" lon="7.01193">
        <ele>2512.01800064</ele>
        <time>2020-02-19T11:05:27.670Z</time>
      </trkpt>
      <trkpt lat="44.77573" lon="7.01197">
        <ele>2513.5900032</ele>
        <time>2020-02-19T11:05:38.670Z</time>
      </trkpt>
      <trkpt lat="44.77583" lon="7.01199">
        <ele>2518.01800064</ele>
        <time>2020-02-19T11:05:47.670Z</time>
      </trkpt>
      <trkpt lat="44.77592" lon="7.012">
        <ele>2519</ele>
        <time>2020-02-19T11:06:00.670Z</time>
      </trkpt>
      <trkpt lat="44.77601" lon="7.01205">
        <ele>2519.23600128</ele>
        <time>2020-02-19T11:06:08.670Z</time>
      </trkpt>
      <trkpt lat="44.7761" lon="7.0121">
        <ele>2521.95400192</ele>
        <time>2020-02-19T11:06:20.670Z</time>
      </trkpt>
      <trkpt lat="44.7762" lon="7.01214">
        <ele>2524</ele>
        <time>2020-02-19T11:06:32.670Z</time>
      </trkpt>
      <trkpt lat="44.77629" lon="7.01219">
        <ele>2524.71800064</ele>
        <time>2020-02-19T11:06:44.670Z</time>
      </trkpt>
      <trkpt lat="44.77635" lon="7.01228">
        <ele>2535.4564818838</ele>
        <time>2020-02-19T11:07:38.670Z</time>
      </trkpt>
      <trkpt lat="44.77643" lon="7.01234">
        <ele>2538.8095236833</ele>
        <time>2020-02-19T11:07:49.670Z</time>
      </trkpt>
      <trkpt lat="44.77651" lon="7.0124">
        <ele>2539.55400192</ele>
        <time>2020-02-19T11:08:02.670Z</time>
      </trkpt>
      <trkpt lat="44.77658" lon="7.01248">
        <ele>2546.23600128</ele>
        <time>2020-02-19T11:08:33.670Z</time>
      </trkpt>
      <trkpt lat="44.7765" lon="7.0126">
        <ele>2547.11800064</ele>
        <time>2020-02-19T11:08:38.670Z</time>
      </trkpt>
      <trkpt lat="44.77658" lon="7.01266">
        <ele>2551.7042959879</ele>
        <time>2020-02-19T11:09:23.670Z</time>
      </trkpt>
      <trkpt lat="44.77667" lon="7.01271">
        <ele>2554</ele>
        <time>2020-02-19T11:09:44.670Z</time>
      </trkpt>
      <trkpt lat="44.77676" lon="7.01272">
        <ele>2556.71800064</ele>
        <time>2020-02-19T11:10:04.670Z</time>
      </trkpt>
      <trkpt lat="44.77685" lon="7.01271">
        <ele>2558.61800064</ele>
        <time>2020-02-19T11:10:23.670Z</time>
      </trkpt>
      <trkpt lat="44.77695" lon="7.01273">
        <ele>2560</ele>
        <time>2020-02-19T11:10:37.670Z</time>
      </trkpt>
      <trkpt lat="44.77704" lon="7.01272">
        <ele>2560</ele>
        <time>2020-02-19T11:10:46.670Z</time>
      </trkpt>
      <trkpt lat="44.77713" lon="7.01268">
        <ele>2565.54599808</ele>
        <time>2020-02-19T11:11:15.670Z</time>
      </trkpt>
      <trkpt lat="44.77722" lon="7.01265">
        <ele>2567.88199936</ele>
        <time>2020-02-19T11:11:28.670Z</time>
      </trkpt>
      <trkpt lat="44.77732" lon="7.01266">
        <ele>2568.23600128</ele>
        <time>2020-02-19T11:11:43.670Z</time>
      </trkpt>
      <trkpt lat="44.77728" lon="7.01279">
        <ele>2576.90800384</ele>
        <time>2020-02-19T11:12:25.670Z</time>
      </trkpt>
      <trkpt lat="44.77721" lon="7.01288">
        <ele>2581.55400192</ele>
        <time>2020-02-19T11:12:42.670Z</time>
      </trkpt>
      <trkpt lat="44.77714" lon="7.01296">
        <ele>2588</ele>
        <time>2020-02-19T11:13:26.670Z</time>
      </trkpt>
      <trkpt lat="44.77723" lon="7.01299">
        <ele>2591.48199936</ele>
        <time>2020-02-19T11:13:52.670Z</time>
      </trkpt>
      <trkpt lat="44.77734" lon="7.013">
        <ele>2593</ele>
        <time>2020-02-19T11:14:09.670Z</time>
      </trkpt>
      <trkpt lat="44.77731" lon="7.01313">
        <ele>2607</ele>
        <time>2020-02-19T11:14:47.670Z</time>
      </trkpt>
      <trkpt lat="44.77732" lon="7.01326">
        <ele>2605.98199936</ele>
        <time>2020-02-19T11:15:07.670Z</time>
      </trkpt>
      <trkpt lat="44.77739" lon="7.01334">
        <ele>2607</ele>
        <time>2020-02-19T11:15:27.670Z</time>
      </trkpt>
      <trkpt lat="44.77748" lon="7.01336">
        <ele>2612</ele>
        <time>2020-02-19T11:16:08.670Z</time>
      </trkpt>
      <trkpt lat="44.77757" lon="7.01341">
        <ele>2620</ele>
        <time>2020-02-19T11:17:31.670Z</time>
      </trkpt>
      <trkpt lat="44.77766" lon="7.01338">
        <ele>2621.01800064</ele>
        <time>2020-02-19T11:17:47.670Z</time>
      </trkpt>
      <trkpt lat="44.77774" lon="7.01344">
        <ele>2627.4099968</ele>
        <time>2020-02-19T11:18:20.670Z</time>
      </trkpt>
      <trkpt lat="44.7778" lon="7.01354">
        <ele>2624.34599808</ele>
        <time>2020-02-19T11:19:29.670Z</time>
      </trkpt>
      <trkpt lat="44.77772" lon="7.0136">
        <ele>2626</ele>
        <time>2020-02-19T11:26:44.670Z</time>
      </trkpt>
      <trkpt lat="44.77776" lon="7.01371">
        <ele>2627.3652685891</ele>
        <time>2020-02-19T11:28:30.670Z</time>
      </trkpt>
      <trkpt lat="44.77785" lon="7.01369">
        <ele>2628.34599808</ele>
        <time>2020-02-19T11:30:29.670Z</time>
      </trkpt>
      <trkpt lat="44.77776" lon="7.01366">
        <ele>2627.43799424</ele>
        <time>2020-02-19T11:36:53.670Z</time>
      </trkpt>
      <trkpt lat="44.77765" lon="7.01364">
        <ele>2623.1764663844</ele>
        <time>2020-02-19T11:36:58.670Z</time>
      </trkpt>
      <trkpt lat="44.77755" lon="7.01363">
        <ele>2618.9890300334</ele>
        <time>2020-02-19T11:37:04.670Z</time>
      </trkpt>
      <trkpt lat="44.77745" lon="7.01362">
        <ele>2615.7362069364</ele>
        <time>2020-02-19T11:37:10.670Z</time>
      </trkpt>
      <trkpt lat="44.77736" lon="7.01361">
        <ele>2611.47399552</ele>
        <time>2020-02-19T11:37:19.670Z</time>
      </trkpt>
      <trkpt lat="44.77727" lon="7.0136">
        <ele>2608.67399552</ele>
        <time>2020-02-19T11:37:23.670Z</time>
      </trkpt>
      <trkpt lat="44.77718" lon="7.01359">
        <ele>2605.87399552</ele>
        <time>2020-02-19T11:37:27.670Z</time>
      </trkpt>
      <trkpt lat="44.77708" lon="7.0136">
        <ele>2603.07399552</ele>
        <time>2020-02-19T11:37:31.670Z</time>
      </trkpt>
      <trkpt lat="44.77699" lon="7.01362">
        <ele>2600.27399552</ele>
        <time>2020-02-19T11:37:35.670Z</time>
      </trkpt>
      <trkpt lat="44.7769" lon="7.01362">
        <ele>2601</ele>
        <time>2020-02-19T11:37:49.670Z</time>
      </trkpt>
      <trkpt lat="44.7768" lon="7.01363">
        <ele>2596.05599488</ele>
        <time>2020-02-19T11:38:03.670Z</time>
      </trkpt>
      <trkpt lat="44.77672" lon="7.01367">
        <ele>2593</ele>
        <time>2020-02-19T11:38:13.670Z</time>
      </trkpt>
      <trkpt lat="44.77678" lon="7.01378">
        <ele>2591.58399232</ele>
        <time>2020-02-19T11:38:48.670Z</time>
      </trkpt>
      <trkpt lat="44.77685" lon="7.01389">
        <ele>2580.98199936</ele>
        <time>2020-02-19T11:38:57.670Z</time>
      </trkpt>
      <trkpt lat="44.77687" lon="7.01402">
        <ele>2576.5280454759</ele>
        <time>2020-02-19T11:39:24.670Z</time>
      </trkpt>
      <trkpt lat="44.77694" lon="7.01414">
        <ele>2570</ele>
        <time>2020-02-19T11:39:56.670Z</time>
      </trkpt>
      <trkpt lat="44.77701" lon="7.01423">
        <ele>2566.51198976</ele>
        <time>2020-02-19T11:39:59.670Z</time>
      </trkpt>
      <trkpt lat="44.7771" lon="7.01438">
        <ele>2561.71198976</ele>
        <time>2020-02-19T11:40:02.670Z</time>
      </trkpt>
      <trkpt lat="44.77716" lon="7.01451">
        <ele>2558.51198976</ele>
        <time>2020-02-19T11:40:04.670Z</time>
      </trkpt>
      <trkpt lat="44.77719" lon="7.01464">
        <ele>2554.03600128</ele>
        <time>2020-02-19T11:40:07.670Z</time>
      </trkpt>
      <trkpt lat="44.77722" lon="7.01477">
        <ele>2554.28199936</ele>
        <time>2020-02-19T11:40:34.670Z</time>
      </trkpt>
      <trkpt lat="44.77713" lon="7.01468">
        <ele>2554</ele>
        <time>2020-02-19T11:40:44.670Z</time>
      </trkpt>
      <trkpt lat="44.77705" lon="7.01475">
        <ele>2553.58199936</ele>
        <time>2020-02-19T11:40:51.670Z</time>
      </trkpt>
      <trkpt lat="44.77698" lon="7.01466">
        <ele>2550.38199936</ele>
        <time>2020-02-19T11:41:13.670Z</time>
      </trkpt>
      <trkpt lat="44.77688" lon="7.01462">
        <ele>2545.6399872</ele>
        <time>2020-02-19T11:41:19.670Z</time>
      </trkpt>
      <trkpt lat="44.77679" lon="7.01461">
        <ele>2539.6399872</ele>
        <time>2020-02-19T11:41:22.670Z</time>
      </trkpt>
      <trkpt lat="44.77668" lon="7.01463">
        <ele>2533.6399872</ele>
        <time>2020-02-19T11:41:25.670Z</time>
      </trkpt>
      <trkpt lat="44.77658" lon="7.01464">
        <ele>2528.34799104</ele>
        <time>2020-02-19T11:41:28.670Z</time>
      </trkpt>
      <trkpt lat="44.77648" lon="7.01464">
        <ele>2524.14799104</ele>
        <time>2020-02-19T11:41:31.670Z</time>
      </trkpt>
      <trkpt lat="44.77639" lon="7.01462">
        <ele>2516</ele>
        <time>2020-02-19T11:41:37.670Z</time>
      </trkpt>
      <trkpt lat="44.77625" lon="7.01465">
        <ele>2516</ele>
        <time>2020-02-19T11:41:46.670Z</time>
      </trkpt>
      <trkpt lat="44.77613" lon="7.01468">
        <ele>2513.16599168</ele>
        <time>2020-02-19T11:41:49.670Z</time>
      </trkpt>
      <trkpt lat="44.77602" lon="7.01469">
        <ele>2510.56599168</ele>
        <time>2020-02-19T11:41:51.670Z</time>
      </trkpt>
      <trkpt lat="44.77587" lon="7.01473">
        <ele>2505.36599168</ele>
        <time>2020-02-19T11:41:55.670Z</time>
      </trkpt>
      <trkpt lat="44.77578" lon="7.01478">
        <ele>2502.65798784</ele>
        <time>2020-02-19T11:41:57.670Z</time>
      </trkpt>
      <trkpt lat="44.77567" lon="7.01481">
        <ele>2496.95798784</ele>
        <time>2020-02-19T11:42:00.670Z</time>
      </trkpt>
      <trkpt lat="44.77557" lon="7.01487">
        <ele>2491.25798784</ele>
        <time>2020-02-19T11:42:03.670Z</time>
      </trkpt>
      <trkpt lat="44.7755" lon="7.01499">
        <ele>2485.55798784</ele>
        <time>2020-02-19T11:42:06.670Z</time>
      </trkpt>
      <trkpt lat="44.7754" lon="7.01501">
        <ele>2485.52600448</ele>
        <time>2020-02-19T11:42:09.670Z</time>
      </trkpt>
      <trkpt lat="44.7753" lon="7.01504">
        <ele>2487.62600448</ele>
        <time>2020-02-19T11:42:12.670Z</time>
      </trkpt>
      <trkpt lat="44.77521" lon="7.01512">
        <ele>2490.42600448</ele>
        <time>2020-02-19T11:42:16.670Z</time>
      </trkpt>
      <trkpt lat="44.77514" lon="7.0152">
        <ele>2488.4099968</ele>
        <time>2020-02-19T11:42:22.670Z</time>
      </trkpt>
      <trkpt lat="44.77505" lon="7.01526">
        <ele>2486.1140102449</ele>
        <time>2020-02-19T11:42:28.670Z</time>
      </trkpt>
      <trkpt lat="44.77497" lon="7.01533">
        <ele>2486.6937202106</ele>
        <time>2020-02-19T11:42:34.670Z</time>
      </trkpt>
      <trkpt lat="44.77489" lon="7.01544">
        <ele>2484.5423510744</ele>
        <time>2020-02-19T11:42:39.670Z</time>
      </trkpt>
      <trkpt lat="44.77479" lon="7.0155">
        <ele>2479.1704502479</ele>
        <time>2020-02-19T11:42:43.670Z</time>
      </trkpt>
      <trkpt lat="44.7747" lon="7.01555">
        <ele>2474</ele>
        <time>2020-02-19T11:42:47.670Z</time>
      </trkpt>
      <trkpt lat="44.77461" lon="7.01561">
        <ele>2474</ele>
        <time>2020-02-19T11:42:50.670Z</time>
      </trkpt>
      <trkpt lat="44.77453" lon="7.0157">
        <ele>2474</ele>
        <time>2020-02-19T11:42:53.670Z</time>
      </trkpt>
      <trkpt lat="44.77447" lon="7.0158">
        <ele>2473.7299904</ele>
        <time>2020-02-19T11:42:57.670Z</time>
      </trkpt>
      <trkpt lat="44.77444" lon="7.01594">
        <ele>2466.2299904</ele>
        <time>2020-02-19T11:43:02.670Z</time>
      </trkpt>
      <trkpt lat="44.77439" lon="7.01605">
        <ele>2460.2299904</ele>
        <time>2020-02-19T11:43:06.670Z</time>
      </trkpt>
      <trkpt lat="44.77432" lon="7.01617">
        <ele>2454.0697575194</ele>
        <time>2020-02-19T11:43:10.670Z</time>
      </trkpt>
      <trkpt lat="44.77427" lon="7.01604">
        <ele>2441.0785057851</ele>
        <time>2020-02-19T11:43:19.670Z</time>
      </trkpt>
      <trkpt lat="44.7742" lon="7.01594">
        <ele>2435.9132165289</ele>
        <time>2020-02-19T11:43:24.670Z</time>
      </trkpt>
      <trkpt lat="44.77411" lon="7.01589">
        <ele>2431.2299904</ele>
        <time>2020-02-19T11:43:28.670Z</time>
      </trkpt>
      <trkpt lat="44.77403" lon="7.01581">
        <ele>2425.2299904</ele>
        <time>2020-02-19T11:43:32.670Z</time>
      </trkpt>
      <trkpt lat="44.7737" lon="7.016">
        <ele>2419.2299904</ele>
        <time>2020-02-19T11:43:36.670Z</time>
      </trkpt>
      <trkpt lat="44.77355" lon="7.01598">
        <ele>2418.01800064</ele>
        <time>2020-02-19T11:43:37.670Z</time>
      </trkpt>
      <trkpt lat="44.77347" lon="7.01591">
        <ele>2418.8411599525</ele>
        <time>2020-02-19T11:43:48.020Z</time>
      </trkpt>
      <trkpt lat="44.77342" lon="7.01603">
        <ele>2418.0469520429</ele>
        <time>2020-02-19T11:43:50.670Z</time>
      </trkpt>
      <trkpt lat="44.77333" lon="7.01607">
        <ele>2416.5484519815</ele>
        <time>2020-02-19T11:43:55.670Z</time>
      </trkpt>
      <trkpt lat="44.77324" lon="7.01612">
        <ele>2411.0040065704</ele>
        <time>2020-02-19T11:43:59.670Z</time>
      </trkpt>
      <trkpt lat="44.77315" lon="7.01619">
        <ele>2404.0970930262</ele>
        <time>2020-02-19T11:44:02.670Z</time>
      </trkpt>
      <trkpt lat="44.77304" lon="7.01623">
        <ele>2397.1901794821</ele>
        <time>2020-02-19T11:44:05.670Z</time>
      </trkpt>
      <trkpt lat="44.77294" lon="7.01624">
        <ele>2391.8199936</ele>
        <time>2020-02-19T11:44:08.670Z</time>
      </trkpt>
      <trkpt lat="44.77283" lon="7.0163">
        <ele>2388.8199936</ele>
        <time>2020-02-19T11:44:11.670Z</time>
      </trkpt>
      <trkpt lat="44.77273" lon="7.01635">
        <ele>2385.8199936</ele>
        <time>2020-02-19T11:44:14.670Z</time>
      </trkpt>
      <trkpt lat="44.77263" lon="7.01634">
        <ele>2382.64599808</ele>
        <time>2020-02-19T11:44:18.670Z</time>
      </trkpt>
      <trkpt lat="44.77252" lon="7.01635">
        <ele>2381.44599808</ele>
        <time>2020-02-19T11:44:22.670Z</time>
      </trkpt>
      <trkpt lat="44.77243" lon="7.01639">
        <ele>2379.48199936</ele>
        <time>2020-02-19T11:44:32.670Z</time>
      </trkpt>
      <trkpt lat="44.77251" lon="7.01631">
        <ele>2379</ele>
        <time>2020-02-19T11:45:05.670Z</time>
      </trkpt>
      <trkpt lat="44.77247" lon="7.01617">
        <ele>2373.30199296</ele>
        <time>2020-02-19T11:45:32.670Z</time>
      </trkpt>
      <trkpt lat="44.77235" lon="7.01607">
        <ele>2370.00199296</ele>
        <time>2020-02-19T11:45:35.670Z</time>
      </trkpt>
      <trkpt lat="44.77226" lon="7.01602">
        <ele>2367.7910952163</ele>
        <time>2020-02-19T11:45:37.670Z</time>
      </trkpt>
      <trkpt lat="44.77216" lon="7.016">
        <ele>2364.3094726131</ele>
        <time>2020-02-19T11:45:40.670Z</time>
      </trkpt>
      <trkpt lat="44.77206" lon="7.016">
        <ele>2360.8278500098</ele>
        <time>2020-02-19T11:45:43.670Z</time>
      </trkpt>
      <trkpt lat="44.77199" lon="7.01607">
        <ele>2354.5393534008</ele>
        <time>2020-02-19T11:45:48.660Z</time>
      </trkpt>
      <trkpt lat="44.77188" lon="7.01606">
        <ele>2347.4823960132</ele>
        <time>2020-02-19T11:45:52.670Z</time>
      </trkpt>
      <trkpt lat="44.77177" lon="7.01598">
        <ele>2342.2028894098</ele>
        <time>2020-02-19T11:45:55.670Z</time>
      </trkpt>
      <trkpt lat="44.77168" lon="7.01591">
        <ele>2337.34799104</ele>
        <time>2020-02-19T11:45:58.670Z</time>
      </trkpt>
      <trkpt lat="44.77158" lon="7.01587">
        <ele>2334.54799104</ele>
        <time>2020-02-19T11:46:00.670Z</time>
      </trkpt>
      <trkpt lat="44.77148" lon="7.01585">
        <ele>2331.74799104</ele>
        <time>2020-02-19T11:46:02.670Z</time>
      </trkpt>
      <trkpt lat="44.77137" lon="7.01582">
        <ele>2327.54799104</ele>
        <time>2020-02-19T11:46:05.670Z</time>
      </trkpt>
      <trkpt lat="44.77129" lon="7.01588">
        <ele>2319.98399232</ele>
        <time>2020-02-19T11:46:11.670Z</time>
      </trkpt>
      <trkpt lat="44.77121" lon="7.0158">
        <ele>2315.18399232</ele>
        <time>2020-02-19T11:46:15.670Z</time>
      </trkpt>
      <trkpt lat="44.77112" lon="7.01571">
        <ele>2310.75798784</ele>
        <time>2020-02-19T11:46:18.670Z</time>
      </trkpt>
      <trkpt lat="44.771" lon="7.01575">
        <ele>2305.05798784</ele>
        <time>2020-02-19T11:46:21.670Z</time>
      </trkpt>
      <trkpt lat="44.77092" lon="7.01568">
        <ele>2301.25798784</ele>
        <time>2020-02-19T11:46:23.670Z</time>
      </trkpt>
      <trkpt lat="44.77083" lon="7.01561">
        <ele>2297.45798784</ele>
        <time>2020-02-19T11:46:25.670Z</time>
      </trkpt>
      <trkpt lat="44.77075" lon="7.01557">
        <ele>2293.94599808</ele>
        <time>2020-02-19T11:46:27.670Z</time>
      </trkpt>
      <trkpt lat="44.77065" lon="7.01554">
        <ele>2293.34599808</ele>
        <time>2020-02-19T11:46:29.670Z</time>
      </trkpt>
      <trkpt lat="44.77055" lon="7.01551">
        <ele>2292.44599808</ele>
        <time>2020-02-19T11:46:32.670Z</time>
      </trkpt>
      <trkpt lat="44.77053" lon="7.01564">
        <ele>2289.98199936</ele>
        <time>2020-02-19T11:46:57.670Z</time>
      </trkpt>
      <trkpt lat="44.77042" lon="7.01561">
        <ele>2283.8406310757</ele>
        <time>2020-02-19T11:47:12.670Z</time>
      </trkpt>
      <trkpt lat="44.77033" lon="7.01557">
        <ele>2280.8525832669</ele>
        <time>2020-02-19T11:47:15.670Z</time>
      </trkpt>
      <trkpt lat="44.77025" lon="7.01546">
        <ele>2275.3473786345</ele>
        <time>2020-02-19T11:47:19.670Z</time>
      </trkpt>
      <trkpt lat="44.77024" lon="7.01529">
        <ele>2268.5200693976</ele>
        <time>2020-02-19T11:47:23.670Z</time>
      </trkpt>
      <trkpt lat="44.77021" lon="7.01517">
        <ele>2265.1064147791</ele>
        <time>2020-02-19T11:47:25.670Z</time>
      </trkpt>
      <trkpt lat="44.77013" lon="7.01503">
        <ele>2260.9401146889</ele>
        <time>2020-02-19T11:47:28.670Z</time>
      </trkpt>
      <trkpt lat="44.77007" lon="7.0149">
        <ele>2258.2455056316</ele>
        <time>2020-02-19T11:47:31.670Z</time>
      </trkpt>
      <trkpt lat="44.76999" lon="7.0148">
        <ele>2255.5508965743</ele>
        <time>2020-02-19T11:47:34.670Z</time>
      </trkpt>
      <trkpt lat="44.76993" lon="7.01469">
        <ele>2252.7434868095</ele>
        <time>2020-02-19T11:47:37.670Z</time>
      </trkpt>
      <trkpt lat="44.76981" lon="7.01466">
        <ele>2247.9338644866</ele>
        <time>2020-02-19T11:47:40.670Z</time>
      </trkpt>
      <trkpt lat="44.76972" lon="7.01465">
        <ele>2244.7274496048</ele>
        <time>2020-02-19T11:47:42.670Z</time>
      </trkpt>
      <trkpt lat="44.76962" lon="7.01462">
        <ele>2241.5210347229</ele>
        <time>2020-02-19T11:47:44.670Z</time>
      </trkpt>
      <trkpt lat="44.76953" lon="7.01459">
        <ele>2238.314619841</ele>
        <time>2020-02-19T11:47:46.670Z</time>
      </trkpt>
      <trkpt lat="44.76944" lon="7.01459">
        <ele>2237.43600128</ele>
        <time>2020-02-19T11:47:49.670Z</time>
      </trkpt>
      <trkpt lat="44.76943" lon="7.01445">
        <ele>2231.4099968</ele>
        <time>2020-02-19T11:48:08.670Z</time>
      </trkpt>
      <trkpt lat="44.76939" lon="7.01431">
        <ele>2229.4099968</ele>
        <time>2020-02-19T11:48:12.670Z</time>
      </trkpt>
      <trkpt lat="44.7693" lon="7.01426">
        <ele>2219.6793559467</ele>
        <time>2020-02-19T11:49:03.670Z</time>
      </trkpt>
      <trkpt lat="44.76921" lon="7.01427">
        <ele>2215.74599808</ele>
        <time>2020-02-19T11:49:11.670Z</time>
      </trkpt>
      <trkpt lat="44.76914" lon="7.01445">
        <ele>2206.7900032</ele>
        <time>2020-02-19T11:49:51.700Z</time>
      </trkpt>
      <trkpt lat="44.76903" lon="7.01448">
        <ele>2203.8199936</ele>
        <time>2020-02-19T11:49:54.670Z</time>
      </trkpt>
      <trkpt lat="44.76892" lon="7.01442">
        <ele>2199.76399872</ele>
        <time>2020-02-19T11:50:03.670Z</time>
      </trkpt>
      <trkpt lat="44.76897" lon="7.01456">
        <ele>2198.93900032</ele>
        <time>2020-02-19T11:50:28.100Z</time>
      </trkpt>
      <trkpt lat="44.76906" lon="7.0147">
        <ele>2198.7158528524</ele>
        <time>2020-02-19T11:50:44.670Z</time>
      </trkpt>
      <trkpt lat="44.76898" lon="7.0146">
        <ele>2199</ele>
        <time>2020-02-19T11:50:47.670Z</time>
      </trkpt>
      <trkpt lat="44.7689" lon="7.01452">
        <ele>2199</ele>
        <time>2020-02-19T11:50:52.700Z</time>
      </trkpt>
      <trkpt lat="44.76883" lon="7.01444">
        <ele>2198.01800064</ele>
        <time>2020-02-19T11:51:07.670Z</time>
      </trkpt>
      <trkpt lat="44.76875" lon="7.01437">
        <ele>2200</ele>
        <time>2020-02-19T11:51:27.670Z</time>
      </trkpt>
      <trkpt lat="44.76873" lon="7.01423">
        <ele>2199.38199936</ele>
        <time>2020-02-19T11:51:43.670Z</time>
      </trkpt>
      <trkpt lat="44.76868" lon="7.01411">
        <ele>2196.52198656</ele>
        <time>2020-02-19T11:51:48.670Z</time>
      </trkpt>
      <trkpt lat="44.76859" lon="7.01408">
        <ele>2188.12198656</ele>
        <time>2020-02-19T11:51:52.670Z</time>
      </trkpt>
      <trkpt lat="44.7685" lon="7.01403">
        <ele>2181.82198656</ele>
        <time>2020-02-19T11:51:55.670Z</time>
      </trkpt>
      <trkpt lat="44.76841" lon="7.01396">
        <ele>2176.1740724648</ele>
        <time>2020-02-19T11:51:58.670Z</time>
      </trkpt>
      <trkpt lat="44.76831" lon="7.01391">
        <ele>2171.5319089938</ele>
        <time>2020-02-19T11:52:01.670Z</time>
      </trkpt>
      <trkpt lat="44.76823" lon="7.01386">
        <ele>2165.3423576991</ele>
        <time>2020-02-19T11:52:05.670Z</time>
      </trkpt>
      <trkpt lat="44.76814" lon="7.01382">
        <ele>2160.6956513097</ele>
        <time>2020-02-19T11:52:08.670Z</time>
      </trkpt>
      <trkpt lat="44.76802" lon="7.01376">
        <ele>2156.0372631303</ele>
        <time>2020-02-19T11:52:11.670Z</time>
      </trkpt>
      <trkpt lat="44.76793" lon="7.01371">
        <ele>2151.3788749508</ele>
        <time>2020-02-19T11:52:14.670Z</time>
      </trkpt>
      <trkpt lat="44.76786" lon="7.01362">
        <ele>2146.96399872</ele>
        <time>2020-02-19T11:52:17.670Z</time>
      </trkpt>
      <trkpt lat="44.76779" lon="7.01353">
        <ele>2146.16399872</ele>
        <time>2020-02-19T11:52:21.670Z</time>
      </trkpt>
      <trkpt lat="44.7677" lon="7.01344">
        <ele>2145.56399872</ele>
        <time>2020-02-19T11:52:24.670Z</time>
      </trkpt>
      <trkpt lat="44.76761" lon="7.01337">
        <ele>2144.69398912</ele>
        <time>2020-02-19T11:52:27.670Z</time>
      </trkpt>
      <trkpt lat="44.76753" lon="7.01328">
        <ele>2139.59398912</ele>
        <time>2020-02-19T11:52:30.670Z</time>
      </trkpt>
      <trkpt lat="44.76745" lon="7.0132">
        <ele>2134.49398912</ele>
        <time>2020-02-19T11:52:33.670Z</time>
      </trkpt>
      <trkpt lat="44.76737" lon="7.0131">
        <ele>2129.39398912</ele>
        <time>2020-02-19T11:52:36.670Z</time>
      </trkpt>
      <trkpt lat="44.76727" lon="7.01305">
        <ele>2126.3067921977</ele>
        <time>2020-02-19T11:52:39.670Z</time>
      </trkpt>
      <trkpt lat="44.76715" lon="7.013">
        <ele>2123.1999980117</ele>
        <time>2020-02-19T11:52:43.670Z</time>
      </trkpt>
      <trkpt lat="44.76705" lon="7.01295">
        <ele>2120.8699023721</ele>
        <time>2020-02-19T11:52:46.670Z</time>
      </trkpt>
      <trkpt lat="44.76697" lon="7.01288">
        <ele>2117.8680398305</ele>
        <time>2020-02-19T11:52:49.670Z</time>
      </trkpt>
      <trkpt lat="44.76697" lon="7.01275">
        <ele>2112.1979329966</ele>
        <time>2020-02-19T11:52:54.670Z</time>
      </trkpt>
      <trkpt lat="44.76691" lon="7.01261">
        <ele>2107.8199936</ele>
        <time>2020-02-19T11:52:58.670Z</time>
      </trkpt>
      <trkpt lat="44.76686" lon="7.01249">
        <ele>2105.8199936</ele>
        <time>2020-02-19T11:53:00.670Z</time>
      </trkpt>
      <trkpt lat="44.76677" lon="7.01233">
        <ele>2103.8199936</ele>
        <time>2020-02-19T11:53:02.670Z</time>
      </trkpt>
      <trkpt lat="44.76671" lon="7.0122">
        <ele>2101.8199936</ele>
        <time>2020-02-19T11:53:04.670Z</time>
      </trkpt>
      <trkpt lat="44.7666" lon="7.01211">
        <ele>2098.83799424</ele>
        <time>2020-02-19T11:53:07.670Z</time>
      </trkpt>
      <trkpt lat="44.76651" lon="7.01201">
        <ele>2096.13799424</ele>
        <time>2020-02-19T11:53:10.670Z</time>
      </trkpt>
      <trkpt lat="44.76641" lon="7.01189">
        <ele>2093.43799424</ele>
        <time>2020-02-19T11:53:13.670Z</time>
      </trkpt>
      <trkpt lat="44.76631" lon="7.01192">
        <ele>2090.73799424</ele>
        <time>2020-02-19T11:53:16.670Z</time>
      </trkpt>
      <trkpt lat="44.76664" lon="7.01174">
        <ele>2089</ele>
        <time>2020-02-19T11:53:27.670Z</time>
      </trkpt>
      <trkpt lat="44.76678" lon="7.01174">
        <ele>2089</ele>
        <time>2020-02-19T11:53:28.670Z</time>
      </trkpt>
      <trkpt lat="44.76687" lon="7.01172">
        <ele>2089</ele>
        <time>2020-02-19T11:53:29.670Z</time>
      </trkpt>
      <trkpt lat="44.76688" lon="7.01152">
        <ele>2089</ele>
        <time>2020-02-19T11:53:36.670Z</time>
      </trkpt>
      <trkpt lat="44.7668" lon="7.01156">
        <ele>2089.81800064</ele>
        <time>2020-02-19T11:53:45.670Z</time>
      </trkpt>
      <trkpt lat="44.7667" lon="7.01148">
        <ele>2091.68199936</ele>
        <time>2020-02-19T11:54:50.670Z</time>
      </trkpt>
      <trkpt lat="44.76664" lon="7.01138">
        <ele>2091.38199936</ele>
        <time>2020-02-19T11:54:53.670Z</time>
      </trkpt>
      <trkpt lat="44.7666" lon="7.01126">
        <ele>2091.08199936</ele>
        <time>2020-02-19T11:54:56.670Z</time>
      </trkpt>
      <trkpt lat="44.7666" lon="7.0111">
        <ele>2088.13799424</ele>
        <time>2020-02-19T11:55:00.670Z</time>
      </trkpt>
      <trkpt lat="44.76657" lon="7.01097">
        <ele>2083.63799424</ele>
        <time>2020-02-19T11:55:05.670Z</time>
      </trkpt>
      <trkpt lat="44.76657" lon="7.01084">
        <ele>2082.18199936</ele>
        <time>2020-02-19T11:55:45.670Z</time>
      </trkpt>
      <trkpt lat="44.76654" lon="7.01072">
        <ele>2081</ele>
        <time>2020-02-19T11:56:03.670Z</time>
      </trkpt>
      <trkpt lat="44.76649" lon="7.01061">
        <ele>2084.3876291217</ele>
        <time>2020-02-19T11:56:19.670Z</time>
      </trkpt>
      <trkpt lat="44.76648" lon="7.01047">
        <ele>2086</ele>
        <time>2020-02-19T11:56:28.670Z</time>
      </trkpt>
      <trkpt lat="44.76648" lon="7.01033">
        <ele>2086</ele>
        <time>2020-02-19T11:56:33.670Z</time>
      </trkpt>
      <trkpt lat="44.76648" lon="7.0102">
        <ele>2085.98199936</ele>
        <time>2020-02-19T11:56:37.670Z</time>
      </trkpt>
      <trkpt lat="44.7665" lon="7.01006">
        <ele>2085.58199936</ele>
        <time>2020-02-19T11:56:41.670Z</time>
      </trkpt>
      <trkpt lat="44.76648" lon="7.00993">
        <ele>2085.28199936</ele>
        <time>2020-02-19T11:56:44.670Z</time>
      </trkpt>
      <trkpt lat="44.76648" lon="7.00979">
        <ele>2085.08199936</ele>
        <time>2020-02-19T11:56:46.670Z</time>
      </trkpt>
      <trkpt lat="44.7665" lon="7.00966">
        <ele>2083.58399232</ele>
        <time>2020-02-19T11:56:48.670Z</time>
      </trkpt>
      <trkpt lat="44.76649" lon="7.00949">
        <ele>2079.98399232</ele>
        <time>2020-02-19T11:56:51.670Z</time>
      </trkpt>
      <trkpt lat="44.76648" lon="7.00935">
        <ele>2075.18399232</ele>
        <time>2020-02-19T11:56:55.670Z</time>
      </trkpt>
      <trkpt lat="44.76653" lon="7.0092">
        <ele>2071.34799104</ele>
        <time>2020-02-19T11:56:58.670Z</time>
      </trkpt>
      <trkpt lat="44.76655" lon="7.00906">
        <ele>2068.54799104</ele>
        <time>2020-02-19T11:57:00.670Z</time>
      </trkpt>
      <trkpt lat="44.76656" lon="7.00892">
        <ele>2064.34799104</ele>
        <time>2020-02-19T11:57:03.670Z</time>
      </trkpt>
      <trkpt lat="44.76653" lon="7.00874">
        <ele>2060.14799104</ele>
        <time>2020-02-19T11:57:06.670Z</time>
      </trkpt>
      <trkpt lat="44.76651" lon="7.00857">
        <ele>2058.52799744</ele>
        <time>2020-02-19T11:57:08.670Z</time>
      </trkpt>
      <trkpt lat="44.76649" lon="7.00842">
        <ele>2057.72799744</ele>
        <time>2020-02-19T11:57:10.670Z</time>
      </trkpt>
      <trkpt lat="44.76646" lon="7.00826">
        <ele>2056.52799744</ele>
        <time>2020-02-19T11:57:13.670Z</time>
      </trkpt>
      <trkpt lat="44.76643" lon="7.00813">
        <ele>2055.32799744</ele>
        <time>2020-02-19T11:57:16.670Z</time>
      </trkpt>
      <trkpt lat="44.76639" lon="7.00796">
        <ele>2052.8199936</ele>
        <time>2020-02-19T11:57:19.670Z</time>
      </trkpt>
      <trkpt lat="44.76636" lon="7.00783">
        <ele>2050.8199936</ele>
        <time>2020-02-19T11:57:21.670Z</time>
      </trkpt>
      <trkpt lat="44.76634" lon="7.0077">
        <ele>2048.8199936</ele>
        <time>2020-02-19T11:57:23.670Z</time>
      </trkpt>
      <trkpt lat="44.76638" lon="7.00756">
        <ele>2045.8199936</ele>
        <time>2020-02-19T11:57:26.670Z</time>
      </trkpt>
      <trkpt lat="44.76645" lon="7.00736">
        <ele>2041.94799104</ele>
        <time>2020-02-19T11:57:29.670Z</time>
      </trkpt>
      <trkpt lat="44.76651" lon="7.00726">
        <ele>2039.14799104</ele>
        <time>2020-02-19T11:57:31.670Z</time>
      </trkpt>
      <trkpt lat="44.76653" lon="7.00713">
        <ele>2036.34799104</ele>
        <time>2020-02-19T11:57:33.670Z</time>
      </trkpt>
      <trkpt lat="44.76655" lon="7.00698">
        <ele>2033.54799104</ele>
        <time>2020-02-19T11:57:35.670Z</time>
      </trkpt>
      <trkpt lat="44.76654" lon="7.00682">
        <ele>2030.78399232</ele>
        <time>2020-02-19T11:57:37.670Z</time>
      </trkpt>
      <trkpt lat="44.7665" lon="7.00669">
        <ele>2028.38399232</ele>
        <time>2020-02-19T11:57:39.670Z</time>
      </trkpt>
      <trkpt lat="44.76647" lon="7.0065">
        <ele>2024.78399232</ele>
        <time>2020-02-19T11:57:42.670Z</time>
      </trkpt>
      <trkpt lat="44.76644" lon="7.00635">
        <ele>2022.38399232</ele>
        <time>2020-02-19T11:57:44.670Z</time>
      </trkpt>
      <trkpt lat="44.76641" lon="7.00621">
        <ele>2019.98399232</ele>
        <time>2020-02-19T11:57:46.670Z</time>
      </trkpt>
      <trkpt lat="44.76638" lon="7.00608">
        <ele>2017.11198976</ele>
        <time>2020-02-19T11:57:48.670Z</time>
      </trkpt>
      <trkpt lat="44.76637" lon="7.00594">
        <ele>2013.91198976</ele>
        <time>2020-02-19T11:57:50.670Z</time>
      </trkpt>
      <trkpt lat="44.76633" lon="7.0058">
        <ele>2009.11198976</ele>
        <time>2020-02-19T11:57:53.670Z</time>
      </trkpt>
      <trkpt lat="44.76631" lon="7.00567">
        <ele>2004.31198976</ele>
        <time>2020-02-19T11:57:56.670Z</time>
      </trkpt>
      <trkpt lat="44.7663" lon="7.00551">
        <ele>2001.2577388138</ele>
        <time>2020-02-19T11:57:59.670Z</time>
      </trkpt>
      <trkpt lat="44.76625" lon="7.00539">
        <ele>1997.2617386501</ele>
        <time>2020-02-19T11:58:04.670Z</time>
      </trkpt>
      <trkpt lat="44.76626" lon="7.00522">
        <ele>1994.898205444</ele>
        <time>2020-02-19T11:58:07.670Z</time>
      </trkpt>
      <trkpt lat="44.76626" lon="7.00505">
        <ele>1993.1017971109</ele>
        <time>2020-02-19T11:58:10.670Z</time>
      </trkpt>
      <trkpt lat="44.76626" lon="7.00491">
        <ele>1991.3053887779</ele>
        <time>2020-02-19T11:58:13.670Z</time>
      </trkpt>
      <trkpt lat="44.76624" lon="7.00476">
        <ele>1989.5089804449</ele>
        <time>2020-02-19T11:58:16.670Z</time>
      </trkpt>
      <trkpt lat="44.76623" lon="7.00461">
        <ele>1983.9906918625</ele>
        <time>2020-02-19T11:58:32.670Z</time>
      </trkpt>
      <trkpt lat="44.76618" lon="7.00449">
        <ele>1981.5087866065</ele>
        <time>2020-02-19T11:58:36.670Z</time>
      </trkpt>
      <trkpt lat="44.76616" lon="7.00435">
        <ele>1979.09199616</ele>
        <time>2020-02-19T11:58:40.670Z</time>
      </trkpt>
      <trkpt lat="44.76615" lon="7.00422">
        <ele>1976.09199616</ele>
        <time>2020-02-19T11:58:45.670Z</time>
      </trkpt>
      <trkpt lat="44.76615" lon="7.00409">
        <ele>1973.16399872</ele>
        <time>2020-02-19T11:58:56.670Z</time>
      </trkpt>
      <trkpt lat="44.76615" lon="7.00396">
        <ele>1966.23799424</ele>
        <time>2020-02-19T11:59:11.670Z</time>
      </trkpt>
      <trkpt lat="44.76611" lon="7.0038">
        <ele>1963.53799424</ele>
        <time>2020-02-19T11:59:14.670Z</time>
      </trkpt>
      <trkpt lat="44.76615" lon="7.00368">
        <ele>1960.0469520429</ele>
        <time>2020-02-19T11:59:20.670Z</time>
      </trkpt>
      <trkpt lat="44.76624" lon="7.00364">
        <ele>1957.0630647253</ele>
        <time>2020-02-19T11:59:28.670Z</time>
      </trkpt>
      <trkpt lat="44.76634" lon="7.00365">
        <ele>1953.0590568736</ele>
        <time>2020-02-19T11:59:33.670Z</time>
      </trkpt>
      <trkpt lat="44.7663" lon="7.00351">
        <ele>1949.98199936</ele>
        <time>2020-02-19T11:59:37.670Z</time>
      </trkpt>
      <trkpt lat="44.76636" lon="7.0033">
        <ele>1949.28199936</ele>
        <time>2020-02-19T11:59:44.670Z</time>
      </trkpt>
      <trkpt lat="44.76631" lon="7.00313">
        <ele>1948.92799744</ele>
        <time>2020-02-19T11:59:47.670Z</time>
      </trkpt>
      <trkpt lat="44.76626" lon="7.00302">
        <ele>1947.72799744</ele>
        <time>2020-02-19T11:59:50.670Z</time>
      </trkpt>
      <trkpt lat="44.76621" lon="7.00289">
        <ele>1945.72799744</ele>
        <time>2020-02-19T11:59:55.670Z</time>
      </trkpt>
      <trkpt lat="44.76617" lon="7.00277">
        <ele>1944.16399872</ele>
        <time>2020-02-19T12:00:01.670Z</time>
      </trkpt>
      <trkpt lat="44.76611" lon="7.00267">
        <ele>1943</ele>
        <time>2020-02-19T12:00:07.670Z</time>
      </trkpt>
      <trkpt lat="44.76603" lon="7.00259">
        <ele>1943</ele>
        <time>2020-02-19T12:00:16.670Z</time>
      </trkpt>
      <trkpt lat="44.76599" lon="7.00248">
        <ele>1940.77399552</ele>
        <time>2020-02-19T12:00:20.670Z</time>
      </trkpt>
      <trkpt lat="44.76595" lon="7.00236">
        <ele>1936</ele>
        <time>2020-02-19T12:00:30.670Z</time>
      </trkpt>
      <trkpt lat="44.76593" lon="7.00249">
        <ele>1936</ele>
        <time>2020-02-19T12:00:49.670Z</time>
      </trkpt>
      <trkpt lat="44.76583" lon="7.00249">
        <ele>1936</ele>
        <time>2020-02-19T12:00:56.670Z</time>
      </trkpt>
      <trkpt lat="44.76582" lon="7.00236">
        <ele>1931.8199936</ele>
        <time>2020-02-19T12:01:01.670Z</time>
      </trkpt>
      <trkpt lat="44.76585" lon="7.00223">
        <ele>1928.8199936</ele>
        <time>2020-02-19T12:01:04.670Z</time>
      </trkpt>
      <trkpt lat="44.7658" lon="7.00211">
        <ele>1924.46599168</ele>
        <time>2020-02-19T12:01:08.670Z</time>
      </trkpt>
      <trkpt lat="44.76575" lon="7.00198">
        <ele>1919.26599168</ele>
        <time>2020-02-19T12:01:12.670Z</time>
      </trkpt>
      <trkpt lat="44.76568" lon="7.00188">
        <ele>1915.36599168</ele>
        <time>2020-02-19T12:01:15.670Z</time>
      </trkpt>
      <trkpt lat="44.76561" lon="7.00179">
        <ele>1910.60199296</ele>
        <time>2020-02-19T12:01:19.670Z</time>
      </trkpt>
      <trkpt lat="44.76558" lon="7.00165">
        <ele>1906.20199296</ele>
        <time>2020-02-19T12:01:23.670Z</time>
      </trkpt>
      <trkpt lat="44.76555" lon="7.0015">
        <ele>1901.5435181162</ele>
        <time>2020-02-19T12:01:28.670Z</time>
      </trkpt>
      <trkpt lat="44.76552" lon="7.00138">
        <ele>1898.8355894248</ele>
        <time>2020-02-19T12:01:35.670Z</time>
      </trkpt>
      <trkpt lat="44.76543" lon="7.00132">
        <ele>1893.9917157709</ele>
        <time>2020-02-19T12:01:42.670Z</time>
      </trkpt>
      <trkpt lat="44.76534" lon="7.00126">
        <ele>1890.6790841766</ele>
        <time>2020-02-19T12:01:46.670Z</time>
      </trkpt>
      <trkpt lat="44.76527" lon="7.00116">
        <ele>1887.45599488</ele>
        <time>2020-02-19T12:01:50.670Z</time>
      </trkpt>
      <trkpt lat="44.76528" lon="7.00102">
        <ele>1882.65599488</ele>
        <time>2020-02-19T12:01:56.670Z</time>
      </trkpt>
      <trkpt lat="44.76539" lon="7.00102">
        <ele>1878.72799744</ele>
        <time>2020-02-19T12:02:05.670Z</time>
      </trkpt>
      <trkpt lat="44.76532" lon="7.00088">
        <ele>1871.57399552</ele>
        <time>2020-02-19T12:02:16.670Z</time>
      </trkpt>
      <trkpt lat="44.76527" lon="7.00075">
        <ele>1868.1716501898</ele>
        <time>2020-02-19T12:02:19.670Z</time>
      </trkpt>
      <trkpt lat="44.76524" lon="7.00061">
        <ele>1862.982032746</ele>
        <time>2020-02-19T12:02:23.670Z</time>
      </trkpt>
      <trkpt lat="44.76524" lon="7.00048">
        <ele>1858</ele>
        <time>2020-02-19T12:02:32.670Z</time>
      </trkpt>
      <trkpt lat="44.76524" lon="7.00034">
        <ele>1850.8025865435</ele>
        <time>2020-02-19T12:04:02.670Z</time>
      </trkpt>
      <trkpt lat="44.7652" lon="7.0002">
        <ele>1844.9699090776</ele>
        <time>2020-02-19T12:04:07.670Z</time>
      </trkpt>
      <trkpt lat="44.76516" lon="7.00007">
        <ele>1844.3681034682</ele>
        <time>2020-02-19T12:04:10.670Z</time>
      </trkpt>
      <trkpt lat="44.76509" lon="6.99999">
        <ele>1842</ele>
        <time>2020-02-19T12:04:47.670Z</time>
      </trkpt>
      <trkpt lat="44.765" lon="6.99994">
        <ele>1842</ele>
        <time>2020-02-19T12:05:08.670Z</time>
      </trkpt>
      <trkpt lat="44.76504" lon="6.99981">
        <ele>1841.01800064</ele>
        <time>2020-02-19T12:09:17.670Z</time>
      </trkpt>
      <trkpt lat="44.76513" lon="6.99986">
        <ele>1841.71800064</ele>
        <time>2020-02-19T12:09:24.670Z</time>
      </trkpt>
      <trkpt lat="44.7652" lon="6.99976">
        <ele>1843</ele>
        <time>2020-02-19T12:09:39.670Z</time>
      </trkpt>
      <trkpt lat="44.76514" lon="6.99966">
        <ele>1843</ele>
        <time>2020-02-19T12:10:02.670Z</time>
      </trkpt>
      <trkpt lat="44.76506" lon="6.99961">
        <ele>1843</ele>
        <time>2020-02-19T12:10:50.670Z</time>
      </trkpt>
      <trkpt lat="44.76506" lon="6.99948">
        <ele>1843.1880604771</ele>
        <time>2020-02-19T12:10:59.670Z</time>
      </trkpt>
      <trkpt lat="44.76507" lon="6.99962">
        <ele>1844</ele>
        <time>2020-02-19T12:11:26.670Z</time>
      </trkpt>
      <trkpt lat="44.76501" lon="6.99949">
        <ele>1844</ele>
        <time>2020-02-19T12:11:45.670Z</time>
      </trkpt>
      <trkpt lat="44.76498" lon="6.99936">
        <ele>1843.28199936</ele>
        <time>2020-02-19T12:11:54.670Z</time>
      </trkpt>
      <trkpt lat="44.76497" lon="6.99924">
        <ele>1844</ele>
        <time>2020-02-19T12:12:11.670Z</time>
      </trkpt>
      <trkpt lat="44.76498" lon="6.99938">
        <ele>1843.28199936</ele>
        <time>2020-02-19T12:12:24.670Z</time>
      </trkpt>
      <trkpt lat="44.76497" lon="6.99922">
        <ele>1842.58199936</ele>
        <time>2020-02-19T12:12:31.670Z</time>
      </trkpt>
      <trkpt lat="44.76503" lon="6.99932">
        <ele>1842.8351653129</ele>
        <time>2020-02-19T12:12:41.670Z</time>
      </trkpt>
      <trkpt lat="44.76492" lon="6.99931">
        <ele>1844</ele>
        <time>2020-02-19T12:12:52.670Z</time>
      </trkpt>
      <trkpt lat="44.76499" lon="6.99942">
        <ele>1842</ele>
        <time>2020-02-19T12:13:08.670Z</time>
      </trkpt>
      <trkpt lat="44.76506" lon="6.99953">
        <ele>1842</ele>
        <time>2020-02-19T12:13:15.670Z</time>
      </trkpt>
      <trkpt lat="44.76511" lon="6.99965">
        <ele>1843.2344697295</ele>
        <time>2020-02-19T12:13:23.670Z</time>
      </trkpt>
      <trkpt lat="44.76503" lon="6.99956">
        <ele>1847</ele>
        <time>2020-02-19T12:15:59.670Z</time>
      </trkpt>
      <trkpt lat="44.76494" lon="6.99946">
        <ele>1844.4667284074</ele>
        <time>2020-02-19T12:16:25.670Z</time>
      </trkpt>
      <trkpt lat="44.76487" lon="6.99935">
        <ele>1844</ele>
        <time>2020-02-19T12:16:30.200Z</time>
      </trkpt>
      <trkpt lat="44.76494" lon="6.99945">
        <ele>1844</ele>
        <time>2020-02-19T12:16:34.670Z</time>
      </trkpt>
      <trkpt lat="44.76498" lon="6.99933">
        <ele>1845</ele>
        <time>2020-02-19T12:17:27.670Z</time>
      </trkpt>
      <trkpt lat="44.76498" lon="6.99947">
        <ele>1844</ele>
        <time>2020-02-19T12:17:50.670Z</time>
      </trkpt>
      <trkpt lat="44.76501" lon="6.99959">
        <ele>1844</ele>
        <time>2020-02-19T12:18:08.670Z</time>
      </trkpt>
      <trkpt lat="44.76497" lon="6.99948">
        <ele>1844</ele>
        <time>2020-02-19T12:18:51.670Z</time>
      </trkpt>
      <trkpt lat="44.76501" lon="6.99935">
        <ele>1844</ele>
        <time>2020-02-19T12:19:14.670Z</time>
      </trkpt>
      <trkpt lat="44.765" lon="6.9992">
        <ele>1844</ele>
        <time>2020-02-19T12:19:22.670Z</time>
      </trkpt>
      <trkpt lat="44.76495" lon="6.99906">
        <ele>1844</ele>
        <time>2020-02-19T12:19:27.670Z</time>
      </trkpt>
      <trkpt lat="44.76497" lon="6.99921">
        <ele>1844</ele>
        <time>2020-02-19T12:19:40.670Z</time>
      </trkpt>
      <trkpt lat="44.76502" lon="6.99936">
        <ele>1844</ele>
        <time>2020-02-19T12:19:42.670Z</time>
      </trkpt>
      <trkpt lat="44.76506" lon="6.99948">
        <ele>1844</ele>
        <time>2020-02-19T12:19:43.670Z</time>
      </trkpt>
      <trkpt lat="44.76504" lon="6.99961">
        <ele>1844</ele>
        <time>2020-02-19T12:19:47.670Z</time>
      </trkpt>
      <trkpt lat="44.76503" lon="6.99946">
        <ele>1840.98199936</ele>
        <time>2020-02-19T12:20:07.670Z</time>
      </trkpt>
      <trkpt lat="44.76503" lon="6.99932">
        <ele>1836.5372674194</ele>
        <time>2020-02-19T12:20:30.670Z</time>
      </trkpt>
      <trkpt lat="44.765" lon="6.99919">
        <ele>1831.1161688756</ele>
        <time>2020-02-19T12:20:37.670Z</time>
      </trkpt>
      <trkpt lat="44.76497" lon="6.99904">
        <ele>1828.9325952081</ele>
        <time>2020-02-19T12:20:44.670Z</time>
      </trkpt>
      <trkpt lat="44.76493" lon="6.99886">
        <ele>1826.6618746678</ele>
        <time>2020-02-19T12:20:49.620Z</time>
      </trkpt>
      <trkpt lat="44.76491" lon="6.99866">
        <ele>1825.1870471324</ele>
        <time>2020-02-19T12:20:51.670Z</time>
      </trkpt>
      <trkpt lat="44.76485" lon="6.99855">
        <ele>1822.3093483443</ele>
        <time>2020-02-19T12:20:55.670Z</time>
      </trkpt>
      <trkpt lat="44.76474" lon="6.99852">
        <ele>1819</ele>
        <time>2020-02-19T12:21:20.670Z</time>
      </trkpt>
      <trkpt lat="44.76472" lon="6.9984">
        <ele>1817</ele>
        <time>2020-02-19T12:21:42.670Z</time>
      </trkpt>
      <trkpt lat="44.76476" lon="6.99827">
        <ele>1816.08199936</ele>
        <time>2020-02-19T12:21:56.670Z</time>
      </trkpt>
      <trkpt lat="44.76466" lon="6.99819">
        <ele>1813.0847454166</ele>
        <time>2020-02-19T12:22:26.670Z</time>
      </trkpt>
      <trkpt lat="44.76459" lon="6.99812">
        <ele>1812.3681034682</ele>
        <time>2020-02-19T12:22:30.670Z</time>
      </trkpt>
      <trkpt lat="44.7645" lon="6.99803">
        <ele>1811.3650941192</ele>
        <time>2020-02-19T12:22:35.670Z</time>
      </trkpt>
      <trkpt lat="44.76453" lon="6.9979">
        <ele>1806.1144584739</ele>
        <time>2020-02-19T12:24:18.670Z</time>
      </trkpt>
      <trkpt lat="44.76449" lon="6.99778">
        <ele>1807.3159482659</ele>
        <time>2020-02-19T12:24:40.670Z</time>
      </trkpt>
      <trkpt lat="44.76439" lon="6.99773">
        <ele>1808</ele>
        <time>2020-02-19T12:24:55.670Z</time>
      </trkpt>
      <trkpt lat="44.76431" lon="6.99764">
        <ele>1806.13700096</ele>
        <time>2020-02-19T12:25:03.700Z</time>
      </trkpt>
      <trkpt lat="44.76421" lon="6.99754">
        <ele>1798.97900032</ele>
        <time>2020-02-19T12:25:57.700Z</time>
      </trkpt>
      <trkpt lat="44.76418" lon="6.99742">
        <ele>1798.18199936</ele>
        <time>2020-02-19T12:26:05.670Z</time>
      </trkpt>
      <trkpt lat="44.76408" lon="6.99745">
        <ele>1798.88199936</ele>
        <time>2020-02-19T12:26:28.670Z</time>
      </trkpt>
      <trkpt lat="44.76412" lon="6.99758">
        <ele>1798.8856582946</ele>
        <time>2020-02-19T12:26:48.670Z</time>
      </trkpt>
      <trkpt lat="44.76413" lon="6.99771">
        <ele>1797.31800064</ele>
        <time>2020-02-19T12:27:10.670Z</time>
      </trkpt>
      <trkpt lat="44.76403" lon="6.99764">
        <ele>1797.04599808</ele>
        <time>2020-02-19T12:27:20.670Z</time>
      </trkpt>
      <trkpt lat="44.76399" lon="6.99749">
        <ele>1796.14599808</ele>
        <time>2020-02-19T12:27:23.670Z</time>
      </trkpt>
      <trkpt lat="44.764" lon="6.99735">
        <ele>1786.1823642051</ele>
        <time>2020-02-19T12:27:55.670Z</time>
      </trkpt>
      <trkpt lat="44.76394" lon="6.99725">
        <ele>1780.29199616</ele>
        <time>2020-02-19T12:28:23.670Z</time>
      </trkpt>
      <trkpt lat="44.76393" lon="6.99712">
        <ele>1774</ele>
        <time>2020-02-19T12:28:40.670Z</time>
      </trkpt>
      <trkpt lat="44.76392" lon="6.99699">
        <ele>1757</ele>
        <time>2020-02-19T12:29:56.670Z</time>
      </trkpt>
      <trkpt lat="44.76397" lon="6.99687">
        <ele>1756</ele>
        <time>2020-02-19T12:30:14.670Z</time>
      </trkpt>
      <trkpt lat="44.76397" lon="6.99674">
        <ele>1754.37900032</ele>
        <time>2020-02-19T12:30:33.700Z</time>
      </trkpt>
      <trkpt lat="44.76404" lon="6.99664">
        <ele>1754.3173657055</ele>
        <time>2020-02-19T12:30:40.670Z</time>
      </trkpt>
      <trkpt lat="44.76404" lon="6.99651">
        <ele>1753.08199936</ele>
        <time>2020-02-19T12:31:06.670Z</time>
      </trkpt>
      <trkpt lat="44.76399" lon="6.99641">
        <ele>1754.03600128</ele>
        <time>2020-02-19T12:31:12.670Z</time>
      </trkpt>
      <trkpt lat="44.76393" lon="6.99629">
        <ele>1745.92799744</ele>
        <time>2020-02-19T12:31:32.670Z</time>
      </trkpt>
      <trkpt lat="44.76387" lon="6.99617">
        <ele>1744.32799744</ele>
        <time>2020-02-19T12:31:36.670Z</time>
      </trkpt>
      <trkpt lat="44.76381" lon="6.99604">
        <ele>1742.44599808</ele>
        <time>2020-02-19T12:31:42.670Z</time>
      </trkpt>
      <trkpt lat="44.76379" lon="6.99592">
        <ele>1739.44599808</ele>
        <time>2020-02-19T12:31:52.670Z</time>
      </trkpt>
      <trkpt lat="44.76376" lon="6.99578">
        <ele>1737.8199936</ele>
        <time>2020-02-19T12:31:57.670Z</time>
      </trkpt>
      <trkpt lat="44.76376" lon="6.99563">
        <ele>1733.8199936</ele>
        <time>2020-02-19T12:32:01.670Z</time>
      </trkpt>
      <trkpt lat="44.76372" lon="6.99551">
        <ele>1729.8199936</ele>
        <time>2020-02-19T12:32:05.670Z</time>
      </trkpt>
      <trkpt lat="44.76369" lon="6.99537">
        <ele>1728.21800064</ele>
        <time>2020-02-19T12:32:09.670Z</time>
      </trkpt>
      <trkpt lat="44.76359" lon="6.99535">
        <ele>1730.2502507676</ele>
        <time>2020-02-19T12:32:31.670Z</time>
      </trkpt>
      <trkpt lat="44.76351" lon="6.99529">
        <ele>1731</ele>
        <time>2020-02-19T12:35:45.670Z</time>
      </trkpt>
      <trkpt lat="44.76353" lon="6.99516">
        <ele>1731</ele>
        <time>2020-02-19T12:36:34.670Z</time>
      </trkpt>
      <trkpt lat="44.76345" lon="6.99504">
        <ele>1732.8243462998</ele>
        <time>2020-02-19T12:38:29.670Z</time>
      </trkpt>
      <trkpt lat="44.76339" lon="6.99487">
        <ele>1729.8303362361</ele>
        <time>2020-02-19T12:38:32.670Z</time>
      </trkpt>
      <trkpt lat="44.76337" lon="6.99474">
        <ele>1727.834329527</ele>
        <time>2020-02-19T12:38:34.670Z</time>
      </trkpt>
      <trkpt lat="44.7633" lon="6.9946">
        <ele>1724.919839628</ele>
        <time>2020-02-19T12:38:37.670Z</time>
      </trkpt>
      <trkpt lat="44.76324" lon="6.99448">
        <ele>1723.4168326521</ele>
        <time>2020-02-19T12:38:40.670Z</time>
      </trkpt>
      <trkpt lat="44.76324" lon="6.99435">
        <ele>1721</ele>
        <time>2020-02-19T12:39:05.670Z</time>
      </trkpt>
      <trkpt lat="44.76317" lon="6.99423">
        <ele>1720.36399872</ele>
        <time>2020-02-19T12:39:10.670Z</time>
      </trkpt>
      <trkpt lat="44.76309" lon="6.99415">
        <ele>1719.76399872</ele>
        <time>2020-02-19T12:39:13.670Z</time>
      </trkpt>
      <trkpt lat="44.76303" lon="6.99401">
        <ele>1719.16399872</ele>
        <time>2020-02-19T12:39:16.670Z</time>
      </trkpt>
      <trkpt lat="44.76297" lon="6.99388">
        <ele>1715.7299904</ele>
        <time>2020-02-19T12:39:19.670Z</time>
      </trkpt>
      <trkpt lat="44.76291" lon="6.99375">
        <ele>1711.2299904</ele>
        <time>2020-02-19T12:39:22.670Z</time>
      </trkpt>
      <trkpt lat="44.7628" lon="6.99363">
        <ele>1706.7299904</ele>
        <time>2020-02-19T12:39:25.670Z</time>
      </trkpt>
      <trkpt lat="44.76271" lon="6.99354">
        <ele>1704.1141204709</ele>
        <time>2020-02-19T12:39:28.670Z</time>
      </trkpt>
      <trkpt lat="44.76262" lon="6.99348">
        <ele>1704.7911026438</ele>
        <time>2020-02-19T12:39:35.670Z</time>
      </trkpt>
      <trkpt lat="44.76256" lon="6.99333">
        <ele>1703.2857131499</ele>
        <time>2020-02-19T12:39:39.670Z</time>
      </trkpt>
      <trkpt lat="44.76248" lon="6.9932">
        <ele>1701.4223578782</ele>
        <time>2020-02-19T12:39:41.670Z</time>
      </trkpt>
      <trkpt lat="44.76238" lon="6.99308">
        <ele>1699.5590026064</ele>
        <time>2020-02-19T12:39:43.670Z</time>
      </trkpt>
      <trkpt lat="44.76228" lon="6.99298">
        <ele>1697.6956473346</ele>
        <time>2020-02-19T12:39:45.670Z</time>
      </trkpt>
      <trkpt lat="44.76217" lon="6.99288">
        <ele>1695.9099968</ele>
        <time>2020-02-19T12:39:47.670Z</time>
      </trkpt>
      <trkpt lat="44.76208" lon="6.99278">
        <ele>1694.9099968</ele>
        <time>2020-02-19T12:39:49.670Z</time>
      </trkpt>
      <trkpt lat="44.76199" lon="6.99271">
        <ele>1693.9099968</ele>
        <time>2020-02-19T12:39:51.670Z</time>
      </trkpt>
      <trkpt lat="44.76189" lon="6.99267">
        <ele>1692.4099968</ele>
        <time>2020-02-19T12:39:54.670Z</time>
      </trkpt>
      <trkpt lat="44.7618" lon="6.9926">
        <ele>1690.9282843028</ele>
        <time>2020-02-19T12:39:57.670Z</time>
      </trkpt>
      <trkpt lat="44.7617" lon="6.99249">
        <ele>1689.7330651793</ele>
        <time>2020-02-19T12:40:00.670Z</time>
      </trkpt>
      <trkpt lat="44.76159" lon="6.99244">
        <ele>1688.5378460558</ele>
        <time>2020-02-19T12:40:03.670Z</time>
      </trkpt>
      <trkpt lat="44.76146" lon="6.99245">
        <ele>1687.3426269323</ele>
        <time>2020-02-19T12:40:06.670Z</time>
      </trkpt>
      <trkpt lat="44.76135" lon="6.99247">
        <ele>1686.8855415261</ele>
        <time>2020-02-19T12:40:08.670Z</time>
      </trkpt>
      <trkpt lat="44.76123" lon="6.99251">
        <ele>1686.6847383132</ele>
        <time>2020-02-19T12:40:10.670Z</time>
      </trkpt>
      <trkpt lat="44.76114" lon="6.99254">
        <ele>1686.4839351004</ele>
        <time>2020-02-19T12:40:12.670Z</time>
      </trkpt>
      <trkpt lat="44.76102" lon="6.99258">
        <ele>1686.1827302811</ele>
        <time>2020-02-19T12:40:15.670Z</time>
      </trkpt>
      <trkpt lat="44.76094" lon="6.99263">
        <ele>1686.23600128</ele>
        <time>2020-02-19T12:40:18.670Z</time>
      </trkpt>
      <trkpt lat="44.76083" lon="6.99268">
        <ele>1687.03600128</ele>
        <time>2020-02-19T12:40:22.670Z</time>
      </trkpt>
      <trkpt lat="44.76073" lon="6.99272">
        <ele>1687.83600128</ele>
        <time>2020-02-19T12:40:26.670Z</time>
      </trkpt>
      <trkpt lat="44.76064" lon="6.99274">
        <ele>1688</ele>
        <time>2020-02-19T12:40:35.670Z</time>
      </trkpt>
      <trkpt lat="44.76055" lon="6.99276">
        <ele>1690</ele>
        <time>2020-02-19T12:41:11.670Z</time>
      </trkpt>
      <trkpt lat="44.76046" lon="6.99272">
        <ele>1691</ele>
        <time>2020-02-19T12:41:49.670Z</time>
      </trkpt>
      <trkpt lat="44.76037" lon="6.99276">
        <ele>1690.9161677182</ele>
        <time>2020-02-19T12:42:26.670Z</time>
      </trkpt>
      <trkpt lat="44.76028" lon="6.99279">
        <ele>1690.1823642051</ele>
        <time>2020-02-19T12:42:35.670Z</time>
      </trkpt>
      <trkpt lat="44.76018" lon="6.99282">
        <ele>1690.7903385382</ele>
        <time>2020-02-19T12:42:45.670Z</time>
      </trkpt>
      <trkpt lat="44.76009" lon="6.99285">
        <ele>1691.5005186323</ele>
        <time>2020-02-19T12:42:52.670Z</time>
      </trkpt>
      <trkpt lat="44.75999" lon="6.99288">
        <ele>1691.78199936</ele>
        <time>2020-02-19T12:42:59.670Z</time>
      </trkpt>
      <trkpt lat="44.75989" lon="6.99291">
        <ele>1691.1176476594</ele>
        <time>2020-02-19T12:43:08.670Z</time>
      </trkpt>
      <trkpt lat="44.75979" lon="6.9929">
        <ele>1692.0300909224</ele>
        <time>2020-02-19T12:43:17.670Z</time>
      </trkpt>
      <trkpt lat="44.7597" lon="6.99289">
        <ele>1693.8355077506</ele>
        <time>2020-02-19T12:43:26.670Z</time>
      </trkpt>
      <trkpt lat="44.75961" lon="6.99288">
        <ele>1693.2834329527</ele>
        <time>2020-02-19T12:43:34.670Z</time>
      </trkpt>
      <trkpt lat="44.75952" lon="6.99291">
        <ele>1693.5170343997</ele>
        <time>2020-02-19T12:43:42.670Z</time>
      </trkpt>
      <trkpt lat="44.75942" lon="6.99291">
        <ele>1694.31800064</ele>
        <time>2020-02-19T12:43:50.670Z</time>
      </trkpt>
      <trkpt lat="44.75933" lon="6.99295">
        <ele>1694.88199936</ele>
        <time>2020-02-19T12:43:58.670Z</time>
      </trkpt>
      <trkpt lat="44.75924" lon="6.99296">
        <ele>1694.08199936</ele>
        <time>2020-02-19T12:44:06.670Z</time>
      </trkpt>
      <trkpt lat="44.75915" lon="6.99299">
        <ele>1694.61800064</ele>
        <time>2020-02-19T12:44:13.670Z</time>
      </trkpt>
      <trkpt lat="44.75905" lon="6.99301">
        <ele>1695</ele>
        <time>2020-02-19T12:44:21.670Z</time>
      </trkpt>
      <trkpt lat="44.75896" lon="6.99303">
        <ele>1695</ele>
        <time>2020-02-19T12:44:30.670Z</time>
      </trkpt>
      <trkpt lat="44.75887" lon="6.99301">
        <ele>1695.11800064</ele>
        <time>2020-02-19T12:44:38.670Z</time>
      </trkpt>
      <trkpt lat="44.75876" lon="6.99301">
        <ele>1696</ele>
        <time>2020-02-19T12:44:47.670Z</time>
      </trkpt>
      <trkpt lat="44.75867" lon="6.99304">
        <ele>1696</ele>
        <time>2020-02-19T12:44:55.670Z</time>
      </trkpt>
      <trkpt lat="44.75857" lon="6.99307">
        <ele>1696</ele>
        <time>2020-02-19T12:45:03.670Z</time>
      </trkpt>
      <trkpt lat="44.75848" lon="6.99312">
        <ele>1696</ele>
        <time>2020-02-19T12:45:10.670Z</time>
      </trkpt>
      <trkpt lat="44.75839" lon="6.99314">
        <ele>1696</ele>
        <time>2020-02-19T12:45:18.670Z</time>
      </trkpt>
      <trkpt lat="44.75829" lon="6.99312">
        <ele>1696</ele>
        <time>2020-02-19T12:45:29.670Z</time>
      </trkpt>
      <trkpt lat="44.7582" lon="6.99311">
        <ele>1696</ele>
        <time>2020-02-19T12:45:40.670Z</time>
      </trkpt>
      <trkpt lat="44.75811" lon="6.99309">
        <ele>1696</ele>
        <time>2020-02-19T12:45:51.670Z</time>
      </trkpt>
      <trkpt lat="44.75801" lon="6.9931">
        <ele>1696.6041456097</ele>
        <time>2020-02-19T12:46:03.670Z</time>
      </trkpt>
      <trkpt lat="44.75802" lon="6.99297">
        <ele>1697.81800064</ele>
        <time>2020-02-19T12:46:15.670Z</time>
      </trkpt>
      <trkpt lat="44.75806" lon="6.99309">
        <ele>1699</ele>
        <time>2020-02-19T12:46:29.670Z</time>
      </trkpt>
      <trkpt lat="44.758" lon="6.99299">
        <ele>1699</ele>
        <time>2020-02-19T12:47:42.670Z</time>
      </trkpt>
      <trkpt lat="44.75804" lon="6.99293">
        <ele>1685.0999755859</ele>
        <time>2020-02-19T12:48:38.670Z</time>
      </trkpt>
    </trkseg>
  </trk>
</gpx>